<?xml version="1.0" encoding="UTF-8" standalone="no" ?>
<gpx xmlns="http://www.topografix.com/GPX/1/1" xmlns:xsi="http://www.w3.org/2001/XMLSchema-instance" xsi:schemaLocation="http://www.topografix.com/GPX/1/1 http://www.topografix.com/GPX/1/1/gpx.xsd" version="1.1" creator="VisuGPX - https://www.visugpx.com">
  <metadata>
    <name>Douzillac - Boucle de Mauriac</name>
    <desc><![CDATA[Douzillac - Boucle de Mauriac]]></desc>
  </metadata>
  <trk>
    <name><![CDATA[Tracé actuel: 15 JUIN 2015 15:18]]></name>
    <trkseg>
      <trkpt lat="45.08454" lon="0.41523">
        <ele>112.61</ele>
        <time>2015-06-15T13:18:26Z</time>
      </trkpt>
      <trkpt lat="45.08458" lon="0.41522">
        <ele>112.61</ele>
        <time>2015-06-15T13:18:30Z</time>
      </trkpt>
      <trkpt lat="45.08459" lon="0.41522">
        <ele>95.79</ele>
        <time>2015-06-15T13:18:31Z</time>
      </trkpt>
      <trkpt lat="45.08461" lon="0.41521">
        <ele>93.87</ele>
        <time>2015-06-15T13:18:35Z</time>
      </trkpt>
      <trkpt lat="45.08463" lon="0.41524">
        <ele>93.87</ele>
        <time>2015-06-15T13:18:52Z</time>
      </trkpt>
      <trkpt lat="45.08466" lon="0.41529">
        <ele>92.9</ele>
        <time>2015-06-15T13:19:06Z</time>
      </trkpt>
      <trkpt lat="45.08466" lon="0.41536">
        <ele>91.46</ele>
        <time>2015-06-15T13:19:10Z</time>
      </trkpt>
      <trkpt lat="45.08468" lon="0.41566">
        <ele>90.98</ele>
        <time>2015-06-15T13:19:26Z</time>
      </trkpt>
      <trkpt lat="45.08468" lon="0.41572">
        <ele>90.5</ele>
        <time>2015-06-15T13:19:30Z</time>
      </trkpt>
      <trkpt lat="45.08474" lon="0.41585">
        <ele>90.02</ele>
        <time>2015-06-15T13:19:44Z</time>
      </trkpt>
      <trkpt lat="45.08476" lon="0.41591">
        <ele>90.02</ele>
        <time>2015-06-15T13:19:48Z</time>
      </trkpt>
      <trkpt lat="45.08479" lon="0.41597">
        <ele>90.02</ele>
        <time>2015-06-15T13:19:52Z</time>
      </trkpt>
      <trkpt lat="45.08481" lon="0.41621">
        <ele>89.54</ele>
        <time>2015-06-15T13:20:07Z</time>
      </trkpt>
      <trkpt lat="45.08477" lon="0.4163">
        <ele>89.06</ele>
        <time>2015-06-15T13:20:13Z</time>
      </trkpt>
      <trkpt lat="45.08472" lon="0.41634">
        <ele>88.1</ele>
        <time>2015-06-15T13:20:17Z</time>
      </trkpt>
      <trkpt lat="45.08459" lon="0.41638">
        <ele>86.66</ele>
        <time>2015-06-15T13:20:31Z</time>
      </trkpt>
      <trkpt lat="45.08439" lon="0.41636">
        <ele>83.77</ele>
        <time>2015-06-15T13:20:47Z</time>
      </trkpt>
      <trkpt lat="45.08421" lon="0.41633">
        <ele>81.37</ele>
        <time>2015-06-15T13:21:02Z</time>
      </trkpt>
      <trkpt lat="45.0842" lon="0.41632">
        <ele>81.37</ele>
        <time>2015-06-15T13:21:03Z</time>
      </trkpt>
      <trkpt lat="45.08409" lon="0.41629">
        <ele>79.93</ele>
        <time>2015-06-15T13:21:11Z</time>
      </trkpt>
      <trkpt lat="45.08405" lon="0.41629">
        <ele>79.93</ele>
        <time>2015-06-15T13:21:14Z</time>
      </trkpt>
      <trkpt lat="45.08402" lon="0.4163">
        <ele>78.97</ele>
        <time>2015-06-15T13:21:16Z</time>
      </trkpt>
      <trkpt lat="45.08396" lon="0.41647">
        <ele>78</ele>
        <time>2015-06-15T13:21:32Z</time>
      </trkpt>
      <trkpt lat="45.08394" lon="0.41667">
        <ele>76.08</ele>
        <time>2015-06-15T13:21:44Z</time>
      </trkpt>
      <trkpt lat="45.08392" lon="0.41677">
        <ele>75.12</ele>
        <time>2015-06-15T13:21:51Z</time>
      </trkpt>
      <trkpt lat="45.0839" lon="0.417">
        <ele>74.64</ele>
        <time>2015-06-15T13:22:05Z</time>
      </trkpt>
      <trkpt lat="45.08388" lon="0.41732">
        <ele>73.2</ele>
        <time>2015-06-15T13:22:24Z</time>
      </trkpt>
      <trkpt lat="45.08389" lon="0.41743">
        <ele>73.2</ele>
        <time>2015-06-15T13:22:35Z</time>
      </trkpt>
      <trkpt lat="45.08393" lon="0.41752">
        <ele>73.2</ele>
        <time>2015-06-15T13:22:47Z</time>
      </trkpt>
      <trkpt lat="45.08395" lon="0.41759">
        <ele>73.2</ele>
        <time>2015-06-15T13:22:53Z</time>
      </trkpt>
      <trkpt lat="45.08398" lon="0.41767">
        <ele>76.56</ele>
        <time>2015-06-15T13:22:59Z</time>
      </trkpt>
      <trkpt lat="45.08404" lon="0.41782">
        <ele>74.16</ele>
        <time>2015-06-15T13:23:11Z</time>
      </trkpt>
      <trkpt lat="45.08406" lon="0.41795">
        <ele>74.16</ele>
        <time>2015-06-15T13:23:23Z</time>
      </trkpt>
      <trkpt lat="45.08407" lon="0.41798">
        <ele>73.68</ele>
        <time>2015-06-15T13:23:25Z</time>
      </trkpt>
      <trkpt lat="45.08407" lon="0.41802">
        <ele>73.68</ele>
        <time>2015-06-15T13:23:27Z</time>
      </trkpt>
      <trkpt lat="45.08414" lon="0.41826">
        <ele>73.68</ele>
        <time>2015-06-15T13:23:43Z</time>
      </trkpt>
      <trkpt lat="45.08417" lon="0.41853">
        <ele>71.27</ele>
        <time>2015-06-15T13:23:59Z</time>
      </trkpt>
      <trkpt lat="45.08408" lon="0.41865">
        <ele>69.83</ele>
        <time>2015-06-15T13:24:14Z</time>
      </trkpt>
      <trkpt lat="45.08407" lon="0.41867">
        <ele>69.83</ele>
        <time>2015-06-15T13:24:16Z</time>
      </trkpt>
      <trkpt lat="45.08411" lon="0.41877">
        <ele>68.87</ele>
        <time>2015-06-15T13:24:29Z</time>
      </trkpt>
      <trkpt lat="45.08413" lon="0.41879">
        <ele>68.87</ele>
        <time>2015-06-15T13:24:54Z</time>
      </trkpt>
      <trkpt lat="45.08411" lon="0.41875">
        <ele>68.87</ele>
        <time>2015-06-15T13:25:05Z</time>
      </trkpt>
      <trkpt lat="45.08412" lon="0.41879">
        <ele>68.39</ele>
        <time>2015-06-15T13:25:16Z</time>
      </trkpt>
      <trkpt lat="45.08412" lon="0.41879">
        <ele>68.39</ele>
        <time>2015-06-15T13:25:39Z</time>
      </trkpt>
      <trkpt lat="45.08412" lon="0.41878">
        <ele>68.39</ele>
        <time>2015-06-15T13:26:01Z</time>
      </trkpt>
      <trkpt lat="45.08412" lon="0.41878">
        <ele>68.39</ele>
        <time>2015-06-15T13:26:36Z</time>
      </trkpt>
      <trkpt lat="45.08412" lon="0.41877">
        <ele>68.39</ele>
        <time>2015-06-15T13:27:12Z</time>
      </trkpt>
      <trkpt lat="45.08412" lon="0.41877">
        <ele>67.91</ele>
        <time>2015-06-15T13:27:32Z</time>
      </trkpt>
      <trkpt lat="45.08413" lon="0.41878">
        <ele>67.91</ele>
        <time>2015-06-15T13:27:58Z</time>
      </trkpt>
      <trkpt lat="45.08412" lon="0.41878">
        <ele>69.35</ele>
        <time>2015-06-15T13:28:21Z</time>
      </trkpt>
      <trkpt lat="45.08412" lon="0.41879">
        <ele>65.03</ele>
        <time>2015-06-15T13:28:22Z</time>
      </trkpt>
      <trkpt lat="45.08412" lon="0.41879">
        <ele>70.79</ele>
        <time>2015-06-15T13:28:23Z</time>
      </trkpt>
      <trkpt lat="45.08412" lon="0.41878">
        <ele>68.39</ele>
        <time>2015-06-15T13:28:35Z</time>
      </trkpt>
      <trkpt lat="45.08411" lon="0.41877">
        <ele>68.39</ele>
        <time>2015-06-15T13:28:55Z</time>
      </trkpt>
      <trkpt lat="45.084" lon="0.41876">
        <ele>69.35</ele>
        <time>2015-06-15T13:29:09Z</time>
      </trkpt>
      <trkpt lat="45.08396" lon="0.41875">
        <ele>69.35</ele>
        <time>2015-06-15T13:29:21Z</time>
      </trkpt>
      <trkpt lat="45.08399" lon="0.41874">
        <ele>69.35</ele>
        <time>2015-06-15T13:29:28Z</time>
      </trkpt>
      <trkpt lat="45.08402" lon="0.41873">
        <ele>69.35</ele>
        <time>2015-06-15T13:29:37Z</time>
      </trkpt>
      <trkpt lat="45.08388" lon="0.41886">
        <ele>69.35</ele>
        <time>2015-06-15T13:29:51Z</time>
      </trkpt>
      <trkpt lat="45.08386" lon="0.41886">
        <ele>69.35</ele>
        <time>2015-06-15T13:30:03Z</time>
      </trkpt>
      <trkpt lat="45.08385" lon="0.41889">
        <ele>69.35</ele>
        <time>2015-06-15T13:30:20Z</time>
      </trkpt>
      <trkpt lat="45.08377" lon="0.41892">
        <ele>67.91</ele>
        <time>2015-06-15T13:30:30Z</time>
      </trkpt>
      <trkpt lat="45.08376" lon="0.41892">
        <ele>67.91</ele>
        <time>2015-06-15T13:30:31Z</time>
      </trkpt>
      <trkpt lat="45.0837" lon="0.41879">
        <ele>67.91</ele>
        <time>2015-06-15T13:30:41Z</time>
      </trkpt>
      <trkpt lat="45.0836" lon="0.41861">
        <ele>66.95</ele>
        <time>2015-06-15T13:30:56Z</time>
      </trkpt>
      <trkpt lat="45.08352" lon="0.41847">
        <ele>66.95</ele>
        <time>2015-06-15T13:31:09Z</time>
      </trkpt>
      <trkpt lat="45.08336" lon="0.41826">
        <ele>66.47</ele>
        <time>2015-06-15T13:31:27Z</time>
      </trkpt>
      <trkpt lat="45.0833" lon="0.41816">
        <ele>66.47</ele>
        <time>2015-06-15T13:31:36Z</time>
      </trkpt>
      <trkpt lat="45.08311" lon="0.41797">
        <ele>65.99</ele>
        <time>2015-06-15T13:31:55Z</time>
      </trkpt>
      <trkpt lat="45.08298" lon="0.41787">
        <ele>65.99</ele>
        <time>2015-06-15T13:32:09Z</time>
      </trkpt>
      <trkpt lat="45.08296" lon="0.41787">
        <ele>65.99</ele>
        <time>2015-06-15T13:32:20Z</time>
      </trkpt>
      <trkpt lat="45.08292" lon="0.41792">
        <ele>65.99</ele>
        <time>2015-06-15T13:32:32Z</time>
      </trkpt>
      <trkpt lat="45.08287" lon="0.41799">
        <ele>65.51</ele>
        <time>2015-06-15T13:32:48Z</time>
      </trkpt>
      <trkpt lat="45.08275" lon="0.41814">
        <ele>65.03</ele>
        <time>2015-06-15T13:33:04Z</time>
      </trkpt>
      <trkpt lat="45.08264" lon="0.41823">
        <ele>64.55</ele>
        <time>2015-06-15T13:33:18Z</time>
      </trkpt>
      <trkpt lat="45.08247" lon="0.41836">
        <ele>64.07</ele>
        <time>2015-06-15T13:33:34Z</time>
      </trkpt>
      <trkpt lat="45.08231" lon="0.41851">
        <ele>63.58</ele>
        <time>2015-06-15T13:33:50Z</time>
      </trkpt>
      <trkpt lat="45.08214" lon="0.41866">
        <ele>63.58</ele>
        <time>2015-06-15T13:34:07Z</time>
      </trkpt>
      <trkpt lat="45.08202" lon="0.41878">
        <ele>62.62</ele>
        <time>2015-06-15T13:34:24Z</time>
      </trkpt>
      <trkpt lat="45.08203" lon="0.41879">
        <ele>62.62</ele>
        <time>2015-06-15T13:34:37Z</time>
      </trkpt>
      <trkpt lat="45.08203" lon="0.41878">
        <ele>62.62</ele>
        <time>2015-06-15T13:35:01Z</time>
      </trkpt>
      <trkpt lat="45.08203" lon="0.41877">
        <ele>62.62</ele>
        <time>2015-06-15T13:35:21Z</time>
      </trkpt>
      <trkpt lat="45.08203" lon="0.41878">
        <ele>63.1</ele>
        <time>2015-06-15T13:35:54Z</time>
      </trkpt>
      <trkpt lat="45.08201" lon="0.41873">
        <ele>63.1</ele>
        <time>2015-06-15T13:36:19Z</time>
      </trkpt>
      <trkpt lat="45.082" lon="0.4187">
        <ele>63.1</ele>
        <time>2015-06-15T13:36:45Z</time>
      </trkpt>
      <trkpt lat="45.08199" lon="0.41871">
        <ele>63.1</ele>
        <time>2015-06-15T13:37:25Z</time>
      </trkpt>
      <trkpt lat="45.08198" lon="0.41869">
        <ele>63.1</ele>
        <time>2015-06-15T13:37:38Z</time>
      </trkpt>
      <trkpt lat="45.08197" lon="0.41878">
        <ele>63.1</ele>
        <time>2015-06-15T13:37:50Z</time>
      </trkpt>
      <trkpt lat="45.08197" lon="0.41878">
        <ele>64.55</ele>
        <time>2015-06-15T13:37:53Z</time>
      </trkpt>
      <trkpt lat="45.08197" lon="0.41882">
        <ele>64.55</ele>
        <time>2015-06-15T13:38:21Z</time>
      </trkpt>
      <trkpt lat="45.08197" lon="0.41881">
        <ele>63.58</ele>
        <time>2015-06-15T13:38:34Z</time>
      </trkpt>
      <trkpt lat="45.08189" lon="0.41887">
        <ele>63.58</ele>
        <time>2015-06-15T13:38:42Z</time>
      </trkpt>
      <trkpt lat="45.08183" lon="0.4189">
        <ele>65.03</ele>
        <time>2015-06-15T13:38:48Z</time>
      </trkpt>
      <trkpt lat="45.08173" lon="0.41899">
        <ele>65.03</ele>
        <time>2015-06-15T13:38:59Z</time>
      </trkpt>
      <trkpt lat="45.08164" lon="0.41906">
        <ele>64.07</ele>
        <time>2015-06-15T13:39:06Z</time>
      </trkpt>
      <trkpt lat="45.08158" lon="0.41911">
        <ele>64.07</ele>
        <time>2015-06-15T13:39:13Z</time>
      </trkpt>
      <trkpt lat="45.08139" lon="0.41924">
        <ele>63.58</ele>
        <time>2015-06-15T13:39:28Z</time>
      </trkpt>
      <trkpt lat="45.08125" lon="0.41936">
        <ele>63.58</ele>
        <time>2015-06-15T13:39:43Z</time>
      </trkpt>
      <trkpt lat="45.08114" lon="0.41942">
        <ele>63.58</ele>
        <time>2015-06-15T13:39:54Z</time>
      </trkpt>
      <trkpt lat="45.0811" lon="0.41947">
        <ele>63.1</ele>
        <time>2015-06-15T13:39:59Z</time>
      </trkpt>
      <trkpt lat="45.08103" lon="0.41952">
        <ele>63.1</ele>
        <time>2015-06-15T13:40:06Z</time>
      </trkpt>
      <trkpt lat="45.0809" lon="0.41962">
        <ele>63.1</ele>
        <time>2015-06-15T13:40:18Z</time>
      </trkpt>
      <trkpt lat="45.08073" lon="0.41975">
        <ele>62.62</ele>
        <time>2015-06-15T13:40:34Z</time>
      </trkpt>
      <trkpt lat="45.08061" lon="0.41985">
        <ele>62.62</ele>
        <time>2015-06-15T13:40:47Z</time>
      </trkpt>
      <trkpt lat="45.0806" lon="0.41986">
        <ele>62.62</ele>
        <time>2015-06-15T13:40:48Z</time>
      </trkpt>
      <trkpt lat="45.08053" lon="0.41989">
        <ele>62.14</ele>
        <time>2015-06-15T13:40:54Z</time>
      </trkpt>
      <trkpt lat="45.08044" lon="0.41998">
        <ele>63.58</ele>
        <time>2015-06-15T13:41:04Z</time>
      </trkpt>
      <trkpt lat="45.08047" lon="0.42013">
        <ele>63.58</ele>
        <time>2015-06-15T13:41:14Z</time>
      </trkpt>
      <trkpt lat="45.08051" lon="0.42025">
        <ele>63.58</ele>
        <time>2015-06-15T13:41:22Z</time>
      </trkpt>
      <trkpt lat="45.08055" lon="0.4204">
        <ele>63.1</ele>
        <time>2015-06-15T13:41:32Z</time>
      </trkpt>
      <trkpt lat="45.08058" lon="0.42048">
        <ele>63.1</ele>
        <time>2015-06-15T13:41:38Z</time>
      </trkpt>
      <trkpt lat="45.08064" lon="0.42066">
        <ele>63.1</ele>
        <time>2015-06-15T13:41:50Z</time>
      </trkpt>
      <trkpt lat="45.08071" lon="0.42088">
        <ele>63.1</ele>
        <time>2015-06-15T13:42:05Z</time>
      </trkpt>
      <trkpt lat="45.08073" lon="0.42099">
        <ele>63.1</ele>
        <time>2015-06-15T13:42:12Z</time>
      </trkpt>
      <trkpt lat="45.08075" lon="0.42103">
        <ele>63.1</ele>
        <time>2015-06-15T13:42:17Z</time>
      </trkpt>
      <trkpt lat="45.08078" lon="0.42115">
        <ele>63.1</ele>
        <time>2015-06-15T13:42:25Z</time>
      </trkpt>
      <trkpt lat="45.08082" lon="0.4213">
        <ele>63.1</ele>
        <time>2015-06-15T13:42:39Z</time>
      </trkpt>
      <trkpt lat="45.08084" lon="0.42135">
        <ele>63.1</ele>
        <time>2015-06-15T13:42:52Z</time>
      </trkpt>
      <trkpt lat="45.08085" lon="0.42136">
        <ele>63.1</ele>
        <time>2015-06-15T13:43:13Z</time>
      </trkpt>
      <trkpt lat="45.08088" lon="0.4215">
        <ele>63.1</ele>
        <time>2015-06-15T13:43:30Z</time>
      </trkpt>
      <trkpt lat="45.08093" lon="0.42167">
        <ele>63.1</ele>
        <time>2015-06-15T13:43:42Z</time>
      </trkpt>
      <trkpt lat="45.08094" lon="0.42168">
        <ele>63.1</ele>
        <time>2015-06-15T13:43:43Z</time>
      </trkpt>
      <trkpt lat="45.08098" lon="0.42177">
        <ele>63.1</ele>
        <time>2015-06-15T13:43:57Z</time>
      </trkpt>
      <trkpt lat="45.08099" lon="0.42179">
        <ele>63.1</ele>
        <time>2015-06-15T13:43:58Z</time>
      </trkpt>
      <trkpt lat="45.08101" lon="0.42187">
        <ele>61.66</ele>
        <time>2015-06-15T13:44:10Z</time>
      </trkpt>
      <trkpt lat="45.08101" lon="0.42188">
        <ele>61.66</ele>
        <time>2015-06-15T13:44:35Z</time>
      </trkpt>
      <trkpt lat="45.08099" lon="0.42187">
        <ele>61.66</ele>
        <time>2015-06-15T13:45:15Z</time>
      </trkpt>
      <trkpt lat="45.08102" lon="0.42185">
        <ele>61.66</ele>
        <time>2015-06-15T13:45:44Z</time>
      </trkpt>
      <trkpt lat="45.08101" lon="0.42183">
        <ele>61.66</ele>
        <time>2015-06-15T13:46:15Z</time>
      </trkpt>
      <trkpt lat="45.081" lon="0.42188">
        <ele>61.66</ele>
        <time>2015-06-15T13:46:41Z</time>
      </trkpt>
      <trkpt lat="45.08106" lon="0.42204">
        <ele>62.62</ele>
        <time>2015-06-15T13:46:57Z</time>
      </trkpt>
      <trkpt lat="45.08113" lon="0.42226">
        <ele>62.62</ele>
        <time>2015-06-15T13:47:17Z</time>
      </trkpt>
      <trkpt lat="45.08116" lon="0.42233">
        <ele>63.58</ele>
        <time>2015-06-15T13:47:25Z</time>
      </trkpt>
      <trkpt lat="45.08117" lon="0.42237">
        <ele>63.58</ele>
        <time>2015-06-15T13:47:28Z</time>
      </trkpt>
      <trkpt lat="45.08119" lon="0.4224">
        <ele>63.1</ele>
        <time>2015-06-15T13:47:31Z</time>
      </trkpt>
      <trkpt lat="45.08122" lon="0.42253">
        <ele>63.58</ele>
        <time>2015-06-15T13:47:40Z</time>
      </trkpt>
      <trkpt lat="45.08124" lon="0.4226">
        <ele>63.58</ele>
        <time>2015-06-15T13:47:44Z</time>
      </trkpt>
      <trkpt lat="45.0813" lon="0.42283">
        <ele>63.1</ele>
        <time>2015-06-15T13:48:01Z</time>
      </trkpt>
      <trkpt lat="45.08137" lon="0.42302">
        <ele>63.1</ele>
        <time>2015-06-15T13:48:14Z</time>
      </trkpt>
      <trkpt lat="45.0814" lon="0.423">
        <ele>63.1</ele>
        <time>2015-06-15T13:48:24Z</time>
      </trkpt>
      <trkpt lat="45.0814" lon="0.4231">
        <ele>63.1</ele>
        <time>2015-06-15T13:48:45Z</time>
      </trkpt>
      <trkpt lat="45.08144" lon="0.42318">
        <ele>63.1</ele>
        <time>2015-06-15T13:48:52Z</time>
      </trkpt>
      <trkpt lat="45.08145" lon="0.42324">
        <ele>63.1</ele>
        <time>2015-06-15T13:48:56Z</time>
      </trkpt>
      <trkpt lat="45.08147" lon="0.4233">
        <ele>63.1</ele>
        <time>2015-06-15T13:49:00Z</time>
      </trkpt>
      <trkpt lat="45.08147" lon="0.42335">
        <ele>63.1</ele>
        <time>2015-06-15T13:49:03Z</time>
      </trkpt>
      <trkpt lat="45.0815" lon="0.42339">
        <ele>63.1</ele>
        <time>2015-06-15T13:49:06Z</time>
      </trkpt>
      <trkpt lat="45.08156" lon="0.42357">
        <ele>63.1</ele>
        <time>2015-06-15T13:49:19Z</time>
      </trkpt>
      <trkpt lat="45.08159" lon="0.42363">
        <ele>63.1</ele>
        <time>2015-06-15T13:49:23Z</time>
      </trkpt>
      <trkpt lat="45.08161" lon="0.42373">
        <ele>63.1</ele>
        <time>2015-06-15T13:49:29Z</time>
      </trkpt>
      <trkpt lat="45.08164" lon="0.42379">
        <ele>63.1</ele>
        <time>2015-06-15T13:49:34Z</time>
      </trkpt>
      <trkpt lat="45.08168" lon="0.42388">
        <ele>63.1</ele>
        <time>2015-06-15T13:49:41Z</time>
      </trkpt>
      <trkpt lat="45.08176" lon="0.42414">
        <ele>63.58</ele>
        <time>2015-06-15T13:49:58Z</time>
      </trkpt>
      <trkpt lat="45.08187" lon="0.42433">
        <ele>63.58</ele>
        <time>2015-06-15T13:50:14Z</time>
      </trkpt>
      <trkpt lat="45.08188" lon="0.42433">
        <ele>63.58</ele>
        <time>2015-06-15T13:50:27Z</time>
      </trkpt>
      <trkpt lat="45.08188" lon="0.42437">
        <ele>63.58</ele>
        <time>2015-06-15T13:50:46Z</time>
      </trkpt>
      <trkpt lat="45.08189" lon="0.42433">
        <ele>63.58</ele>
        <time>2015-06-15T13:51:08Z</time>
      </trkpt>
      <trkpt lat="45.08188" lon="0.42435">
        <ele>63.58</ele>
        <time>2015-06-15T13:51:30Z</time>
      </trkpt>
      <trkpt lat="45.08187" lon="0.42439">
        <ele>63.58</ele>
        <time>2015-06-15T13:51:49Z</time>
      </trkpt>
      <trkpt lat="45.08186" lon="0.42444">
        <ele>64.07</ele>
        <time>2015-06-15T13:52:16Z</time>
      </trkpt>
      <trkpt lat="45.08184" lon="0.4244">
        <ele>64.07</ele>
        <time>2015-06-15T13:52:43Z</time>
      </trkpt>
      <trkpt lat="45.08187" lon="0.42436">
        <ele>64.07</ele>
        <time>2015-06-15T13:53:01Z</time>
      </trkpt>
      <trkpt lat="45.08186" lon="0.42433">
        <ele>64.07</ele>
        <time>2015-06-15T13:53:22Z</time>
      </trkpt>
      <trkpt lat="45.08187" lon="0.42431">
        <ele>64.07</ele>
        <time>2015-06-15T13:53:39Z</time>
      </trkpt>
      <trkpt lat="45.08188" lon="0.42431">
        <ele>64.07</ele>
        <time>2015-06-15T13:53:57Z</time>
      </trkpt>
      <trkpt lat="45.08188" lon="0.42431">
        <ele>64.07</ele>
        <time>2015-06-15T13:54:08Z</time>
      </trkpt>
      <trkpt lat="45.08188" lon="0.42432">
        <ele>64.07</ele>
        <time>2015-06-15T13:54:25Z</time>
      </trkpt>
      <trkpt lat="45.08188" lon="0.42434">
        <ele>64.07</ele>
        <time>2015-06-15T13:54:42Z</time>
      </trkpt>
      <trkpt lat="45.08189" lon="0.42435">
        <ele>64.07</ele>
        <time>2015-06-15T13:55:10Z</time>
      </trkpt>
      <trkpt lat="45.0819" lon="0.42434">
        <ele>63.58</ele>
        <time>2015-06-15T13:55:34Z</time>
      </trkpt>
      <trkpt lat="45.0819" lon="0.42432">
        <ele>63.58</ele>
        <time>2015-06-15T13:55:55Z</time>
      </trkpt>
      <trkpt lat="45.08188" lon="0.42432">
        <ele>63.58</ele>
        <time>2015-06-15T13:56:11Z</time>
      </trkpt>
      <trkpt lat="45.0819" lon="0.42427">
        <ele>63.58</ele>
        <time>2015-06-15T13:56:30Z</time>
      </trkpt>
      <trkpt lat="45.08191" lon="0.42428">
        <ele>63.58</ele>
        <time>2015-06-15T13:56:44Z</time>
      </trkpt>
      <trkpt lat="45.0819" lon="0.42432">
        <ele>63.58</ele>
        <time>2015-06-15T13:56:55Z</time>
      </trkpt>
      <trkpt lat="45.08187" lon="0.42434">
        <ele>64.07</ele>
        <time>2015-06-15T13:57:15Z</time>
      </trkpt>
      <trkpt lat="45.08188" lon="0.42437">
        <ele>64.07</ele>
        <time>2015-06-15T13:57:40Z</time>
      </trkpt>
      <trkpt lat="45.08187" lon="0.42438">
        <ele>64.07</ele>
        <time>2015-06-15T13:58:06Z</time>
      </trkpt>
      <trkpt lat="45.08189" lon="0.42442">
        <ele>64.07</ele>
        <time>2015-06-15T13:58:24Z</time>
      </trkpt>
      <trkpt lat="45.08196" lon="0.42458">
        <ele>64.07</ele>
        <time>2015-06-15T13:58:37Z</time>
      </trkpt>
      <trkpt lat="45.08201" lon="0.42468">
        <ele>64.07</ele>
        <time>2015-06-15T13:58:44Z</time>
      </trkpt>
      <trkpt lat="45.08205" lon="0.42476">
        <ele>64.07</ele>
        <time>2015-06-15T13:58:50Z</time>
      </trkpt>
      <trkpt lat="45.08209" lon="0.42483">
        <ele>64.07</ele>
        <time>2015-06-15T13:58:56Z</time>
      </trkpt>
      <trkpt lat="45.08213" lon="0.4249">
        <ele>64.07</ele>
        <time>2015-06-15T13:59:03Z</time>
      </trkpt>
      <trkpt lat="45.08221" lon="0.42506">
        <ele>64.07</ele>
        <time>2015-06-15T13:59:16Z</time>
      </trkpt>
      <trkpt lat="45.08229" lon="0.42523">
        <ele>64.07</ele>
        <time>2015-06-15T13:59:29Z</time>
      </trkpt>
      <trkpt lat="45.0823" lon="0.42525">
        <ele>64.07</ele>
        <time>2015-06-15T13:59:30Z</time>
      </trkpt>
      <trkpt lat="45.08232" lon="0.42529">
        <ele>64.07</ele>
        <time>2015-06-15T13:59:34Z</time>
      </trkpt>
      <trkpt lat="45.08236" lon="0.42538">
        <ele>64.07</ele>
        <time>2015-06-15T13:59:47Z</time>
      </trkpt>
      <trkpt lat="45.08244" lon="0.42556">
        <ele>64.07</ele>
        <time>2015-06-15T14:00:01Z</time>
      </trkpt>
      <trkpt lat="45.08252" lon="0.4257">
        <ele>64.07</ele>
        <time>2015-06-15T14:00:11Z</time>
      </trkpt>
      <trkpt lat="45.08258" lon="0.4258">
        <ele>64.07</ele>
        <time>2015-06-15T14:00:19Z</time>
      </trkpt>
      <trkpt lat="45.08271" lon="0.42595">
        <ele>64.07</ele>
        <time>2015-06-15T14:00:33Z</time>
      </trkpt>
      <trkpt lat="45.08287" lon="0.42609">
        <ele>64.55</ele>
        <time>2015-06-15T14:00:49Z</time>
      </trkpt>
      <trkpt lat="45.08303" lon="0.42624">
        <ele>65.03</ele>
        <time>2015-06-15T14:01:06Z</time>
      </trkpt>
      <trkpt lat="45.08305" lon="0.42625">
        <ele>65.03</ele>
        <time>2015-06-15T14:01:08Z</time>
      </trkpt>
      <trkpt lat="45.08297" lon="0.42622">
        <ele>65.03</ele>
        <time>2015-06-15T14:01:24Z</time>
      </trkpt>
      <trkpt lat="45.08297" lon="0.42624">
        <ele>64.55</ele>
        <time>2015-06-15T14:01:40Z</time>
      </trkpt>
      <trkpt lat="45.08298" lon="0.42622">
        <ele>64.55</ele>
        <time>2015-06-15T14:02:00Z</time>
      </trkpt>
      <trkpt lat="45.08298" lon="0.42622">
        <ele>64.55</ele>
        <time>2015-06-15T14:02:25Z</time>
      </trkpt>
      <trkpt lat="45.08297" lon="0.42624">
        <ele>64.55</ele>
        <time>2015-06-15T14:02:50Z</time>
      </trkpt>
      <trkpt lat="45.08297" lon="0.42625">
        <ele>64.55</ele>
        <time>2015-06-15T14:03:09Z</time>
      </trkpt>
      <trkpt lat="45.08299" lon="0.42623">
        <ele>65.03</ele>
        <time>2015-06-15T14:03:40Z</time>
      </trkpt>
      <trkpt lat="45.08298" lon="0.42624">
        <ele>64.55</ele>
        <time>2015-06-15T14:04:12Z</time>
      </trkpt>
      <trkpt lat="45.08297" lon="0.42623">
        <ele>64.55</ele>
        <time>2015-06-15T14:04:38Z</time>
      </trkpt>
      <trkpt lat="45.08298" lon="0.42622">
        <ele>64.55</ele>
        <time>2015-06-15T14:04:52Z</time>
      </trkpt>
      <trkpt lat="45.08299" lon="0.42622">
        <ele>64.55</ele>
        <time>2015-06-15T14:04:54Z</time>
      </trkpt>
      <trkpt lat="45.08301" lon="0.42623">
        <ele>64.55</ele>
        <time>2015-06-15T14:04:56Z</time>
      </trkpt>
      <trkpt lat="45.08315" lon="0.42635">
        <ele>65.03</ele>
        <time>2015-06-15T14:05:13Z</time>
      </trkpt>
      <trkpt lat="45.08327" lon="0.42649">
        <ele>64.07</ele>
        <time>2015-06-15T14:05:32Z</time>
      </trkpt>
      <trkpt lat="45.08328" lon="0.4265">
        <ele>64.07</ele>
        <time>2015-06-15T14:05:33Z</time>
      </trkpt>
      <trkpt lat="45.08332" lon="0.42656">
        <ele>64.07</ele>
        <time>2015-06-15T14:05:39Z</time>
      </trkpt>
      <trkpt lat="45.08339" lon="0.42668">
        <ele>64.07</ele>
        <time>2015-06-15T14:05:50Z</time>
      </trkpt>
      <trkpt lat="45.08342" lon="0.4267">
        <ele>64.07</ele>
        <time>2015-06-15T14:05:53Z</time>
      </trkpt>
      <trkpt lat="45.08345" lon="0.42676">
        <ele>64.07</ele>
        <time>2015-06-15T14:05:58Z</time>
      </trkpt>
      <trkpt lat="45.0836" lon="0.42692">
        <ele>65.03</ele>
        <time>2015-06-15T14:06:15Z</time>
      </trkpt>
      <trkpt lat="45.08379" lon="0.42694">
        <ele>65.51</ele>
        <time>2015-06-15T14:06:31Z</time>
      </trkpt>
      <trkpt lat="45.08383" lon="0.4269">
        <ele>65.51</ele>
        <time>2015-06-15T14:06:35Z</time>
      </trkpt>
      <trkpt lat="45.08398" lon="0.42684">
        <ele>65.51</ele>
        <time>2015-06-15T14:06:49Z</time>
      </trkpt>
      <trkpt lat="45.08402" lon="0.42682">
        <ele>65.51</ele>
        <time>2015-06-15T14:06:53Z</time>
      </trkpt>
      <trkpt lat="45.08411" lon="0.42677">
        <ele>65.99</ele>
        <time>2015-06-15T14:07:02Z</time>
      </trkpt>
      <trkpt lat="45.08413" lon="0.42676">
        <ele>65.99</ele>
        <time>2015-06-15T14:07:04Z</time>
      </trkpt>
      <trkpt lat="45.08417" lon="0.42676">
        <ele>65.99</ele>
        <time>2015-06-15T14:07:07Z</time>
      </trkpt>
      <trkpt lat="45.08429" lon="0.42666">
        <ele>65.51</ele>
        <time>2015-06-15T14:07:20Z</time>
      </trkpt>
      <trkpt lat="45.08446" lon="0.42657">
        <ele>65.99</ele>
        <time>2015-06-15T14:07:36Z</time>
      </trkpt>
      <trkpt lat="45.08452" lon="0.42645">
        <ele>66.47</ele>
        <time>2015-06-15T14:07:50Z</time>
      </trkpt>
      <trkpt lat="45.08452" lon="0.42644">
        <ele>66.47</ele>
        <time>2015-06-15T14:07:51Z</time>
      </trkpt>
      <trkpt lat="45.08449" lon="0.42622">
        <ele>66.95</ele>
        <time>2015-06-15T14:08:06Z</time>
      </trkpt>
      <trkpt lat="45.08448" lon="0.42607">
        <ele>67.43</ele>
        <time>2015-06-15T14:08:15Z</time>
      </trkpt>
      <trkpt lat="45.08447" lon="0.42604">
        <ele>67.43</ele>
        <time>2015-06-15T14:08:17Z</time>
      </trkpt>
      <trkpt lat="45.08443" lon="0.4258">
        <ele>67.43</ele>
        <time>2015-06-15T14:08:32Z</time>
      </trkpt>
      <trkpt lat="45.08438" lon="0.42554">
        <ele>67.91</ele>
        <time>2015-06-15T14:08:49Z</time>
      </trkpt>
      <trkpt lat="45.08438" lon="0.42533">
        <ele>67.91</ele>
        <time>2015-06-15T14:09:02Z</time>
      </trkpt>
      <trkpt lat="45.08438" lon="0.42527">
        <ele>68.39</ele>
        <time>2015-06-15T14:09:13Z</time>
      </trkpt>
      <trkpt lat="45.08439" lon="0.42512">
        <ele>67.91</ele>
        <time>2015-06-15T14:09:26Z</time>
      </trkpt>
      <trkpt lat="45.08439" lon="0.42509">
        <ele>68.39</ele>
        <time>2015-06-15T14:09:28Z</time>
      </trkpt>
      <trkpt lat="45.0844" lon="0.42501">
        <ele>68.39</ele>
        <time>2015-06-15T14:09:34Z</time>
      </trkpt>
      <trkpt lat="45.08446" lon="0.42479">
        <ele>68.39</ele>
        <time>2015-06-15T14:09:49Z</time>
      </trkpt>
      <trkpt lat="45.08458" lon="0.42455">
        <ele>69.35</ele>
        <time>2015-06-15T14:10:10Z</time>
      </trkpt>
      <trkpt lat="45.0846" lon="0.42446">
        <ele>69.35</ele>
        <time>2015-06-15T14:10:25Z</time>
      </trkpt>
      <trkpt lat="45.08459" lon="0.42447">
        <ele>69.83</ele>
        <time>2015-06-15T14:10:39Z</time>
      </trkpt>
      <trkpt lat="45.08461" lon="0.42444">
        <ele>69.83</ele>
        <time>2015-06-15T14:10:53Z</time>
      </trkpt>
      <trkpt lat="45.08461" lon="0.42445">
        <ele>69.35</ele>
        <time>2015-06-15T14:11:17Z</time>
      </trkpt>
      <trkpt lat="45.08462" lon="0.42443">
        <ele>69.35</ele>
        <time>2015-06-15T14:11:37Z</time>
      </trkpt>
      <trkpt lat="45.0846" lon="0.42445">
        <ele>69.35</ele>
        <time>2015-06-15T14:11:58Z</time>
      </trkpt>
      <trkpt lat="45.08461" lon="0.42446">
        <ele>69.83</ele>
        <time>2015-06-15T14:12:21Z</time>
      </trkpt>
      <trkpt lat="45.0846" lon="0.42446">
        <ele>69.83</ele>
        <time>2015-06-15T14:12:52Z</time>
      </trkpt>
      <trkpt lat="45.08461" lon="0.42445">
        <ele>69.83</ele>
        <time>2015-06-15T14:13:15Z</time>
      </trkpt>
      <trkpt lat="45.08463" lon="0.42451">
        <ele>69.83</ele>
        <time>2015-06-15T14:13:28Z</time>
      </trkpt>
      <trkpt lat="45.08464" lon="0.4245">
        <ele>69.83</ele>
        <time>2015-06-15T14:13:54Z</time>
      </trkpt>
      <trkpt lat="45.08464" lon="0.42451">
        <ele>69.83</ele>
        <time>2015-06-15T14:14:12Z</time>
      </trkpt>
      <trkpt lat="45.08461" lon="0.42455">
        <ele>69.83</ele>
        <time>2015-06-15T14:14:30Z</time>
      </trkpt>
      <trkpt lat="45.08452" lon="0.42463">
        <ele>69.35</ele>
        <time>2015-06-15T14:14:40Z</time>
      </trkpt>
      <trkpt lat="45.08449" lon="0.42468">
        <ele>68.39</ele>
        <time>2015-06-15T14:14:44Z</time>
      </trkpt>
      <trkpt lat="45.08445" lon="0.4248">
        <ele>67.91</ele>
        <time>2015-06-15T14:14:54Z</time>
      </trkpt>
      <trkpt lat="45.08443" lon="0.4249">
        <ele>67.91</ele>
        <time>2015-06-15T14:15:01Z</time>
      </trkpt>
      <trkpt lat="45.08438" lon="0.42513">
        <ele>66.95</ele>
        <time>2015-06-15T14:15:15Z</time>
      </trkpt>
      <trkpt lat="45.08435" lon="0.42523">
        <ele>66.95</ele>
        <time>2015-06-15T14:15:21Z</time>
      </trkpt>
      <trkpt lat="45.08434" lon="0.42537">
        <ele>66.95</ele>
        <time>2015-06-15T14:15:30Z</time>
      </trkpt>
      <trkpt lat="45.08434" lon="0.42542">
        <ele>66.95</ele>
        <time>2015-06-15T14:15:33Z</time>
      </trkpt>
      <trkpt lat="45.08435" lon="0.4255">
        <ele>66.95</ele>
        <time>2015-06-15T14:15:37Z</time>
      </trkpt>
      <trkpt lat="45.08435" lon="0.42556">
        <ele>66.47</ele>
        <time>2015-06-15T14:15:42Z</time>
      </trkpt>
      <trkpt lat="45.08437" lon="0.42578">
        <ele>66.47</ele>
        <time>2015-06-15T14:15:56Z</time>
      </trkpt>
      <trkpt lat="45.08439" lon="0.42583">
        <ele>66.47</ele>
        <time>2015-06-15T14:16:00Z</time>
      </trkpt>
      <trkpt lat="45.08444" lon="0.426">
        <ele>66.47</ele>
        <time>2015-06-15T14:16:10Z</time>
      </trkpt>
      <trkpt lat="45.08448" lon="0.42623">
        <ele>65.99</ele>
        <time>2015-06-15T14:16:25Z</time>
      </trkpt>
      <trkpt lat="45.08451" lon="0.42639">
        <ele>65.51</ele>
        <time>2015-06-15T14:16:36Z</time>
      </trkpt>
      <trkpt lat="45.08454" lon="0.42655">
        <ele>65.03</ele>
        <time>2015-06-15T14:16:46Z</time>
      </trkpt>
      <trkpt lat="45.08456" lon="0.42661">
        <ele>65.03</ele>
        <time>2015-06-15T14:16:50Z</time>
      </trkpt>
      <trkpt lat="45.08461" lon="0.42676">
        <ele>65.99</ele>
        <time>2015-06-15T14:17:00Z</time>
      </trkpt>
      <trkpt lat="45.0847" lon="0.427">
        <ele>65.99</ele>
        <time>2015-06-15T14:17:16Z</time>
      </trkpt>
      <trkpt lat="45.08478" lon="0.42724">
        <ele>65.99</ele>
        <time>2015-06-15T14:17:30Z</time>
      </trkpt>
      <trkpt lat="45.0848" lon="0.42728">
        <ele>65.99</ele>
        <time>2015-06-15T14:17:34Z</time>
      </trkpt>
      <trkpt lat="45.08489" lon="0.42739">
        <ele>66.95</ele>
        <time>2015-06-15T14:17:45Z</time>
      </trkpt>
      <trkpt lat="45.08497" lon="0.42745">
        <ele>66.95</ele>
        <time>2015-06-15T14:17:53Z</time>
      </trkpt>
      <trkpt lat="45.08499" lon="0.42743">
        <ele>66.95</ele>
        <time>2015-06-15T14:17:55Z</time>
      </trkpt>
      <trkpt lat="45.08507" lon="0.42741">
        <ele>65.51</ele>
        <time>2015-06-15T14:18:02Z</time>
      </trkpt>
      <trkpt lat="45.08512" lon="0.42738">
        <ele>66.95</ele>
        <time>2015-06-15T14:18:07Z</time>
      </trkpt>
      <trkpt lat="45.08517" lon="0.42735">
        <ele>66.95</ele>
        <time>2015-06-15T14:18:12Z</time>
      </trkpt>
      <trkpt lat="45.08532" lon="0.4272">
        <ele>67.91</ele>
        <time>2015-06-15T14:18:26Z</time>
      </trkpt>
      <trkpt lat="45.08548" lon="0.42704">
        <ele>68.87</ele>
        <time>2015-06-15T14:18:42Z</time>
      </trkpt>
      <trkpt lat="45.08563" lon="0.42688">
        <ele>69.83</ele>
        <time>2015-06-15T14:18:57Z</time>
      </trkpt>
      <trkpt lat="45.08576" lon="0.42675">
        <ele>70.79</ele>
        <time>2015-06-15T14:19:12Z</time>
      </trkpt>
      <trkpt lat="45.0859" lon="0.42676">
        <ele>72.24</ele>
        <time>2015-06-15T14:19:27Z</time>
      </trkpt>
      <trkpt lat="45.08592" lon="0.4268">
        <ele>72.24</ele>
        <time>2015-06-15T14:19:38Z</time>
      </trkpt>
      <trkpt lat="45.08594" lon="0.4268">
        <ele>72.24</ele>
        <time>2015-06-15T14:19:51Z</time>
      </trkpt>
      <trkpt lat="45.08594" lon="0.4268">
        <ele>72.72</ele>
        <time>2015-06-15T14:20:00Z</time>
      </trkpt>
      <trkpt lat="45.08592" lon="0.42682">
        <ele>72.72</ele>
        <time>2015-06-15T14:20:09Z</time>
      </trkpt>
      <trkpt lat="45.08591" lon="0.42683">
        <ele>72.72</ele>
        <time>2015-06-15T14:20:25Z</time>
      </trkpt>
      <trkpt lat="45.08592" lon="0.42687">
        <ele>72.72</ele>
        <time>2015-06-15T14:20:43Z</time>
      </trkpt>
      <trkpt lat="45.08588" lon="0.42691">
        <ele>72.72</ele>
        <time>2015-06-15T14:20:56Z</time>
      </trkpt>
      <trkpt lat="45.08588" lon="0.42693">
        <ele>72.72</ele>
        <time>2015-06-15T14:21:29Z</time>
      </trkpt>
      <trkpt lat="45.08589" lon="0.42692">
        <ele>72.72</ele>
        <time>2015-06-15T14:21:56Z</time>
      </trkpt>
      <trkpt lat="45.08592" lon="0.42689">
        <ele>72.72</ele>
        <time>2015-06-15T14:22:19Z</time>
      </trkpt>
      <trkpt lat="45.08593" lon="0.42688">
        <ele>72.72</ele>
        <time>2015-06-15T14:22:49Z</time>
      </trkpt>
      <trkpt lat="45.08592" lon="0.42688">
        <ele>72.72</ele>
        <time>2015-06-15T14:22:56Z</time>
      </trkpt>
      <trkpt lat="45.08596" lon="0.42694">
        <ele>72.72</ele>
        <time>2015-06-15T14:23:12Z</time>
      </trkpt>
      <trkpt lat="45.08596" lon="0.42698">
        <ele>72.72</ele>
        <time>2015-06-15T14:23:15Z</time>
      </trkpt>
      <trkpt lat="45.08599" lon="0.42704">
        <ele>72.72</ele>
        <time>2015-06-15T14:23:29Z</time>
      </trkpt>
      <trkpt lat="45.08598" lon="0.42692">
        <ele>72.72</ele>
        <time>2015-06-15T14:23:42Z</time>
      </trkpt>
      <trkpt lat="45.08598" lon="0.42697">
        <ele>72.72</ele>
        <time>2015-06-15T14:23:51Z</time>
      </trkpt>
      <trkpt lat="45.08598" lon="0.42693">
        <ele>72.72</ele>
        <time>2015-06-15T14:24:03Z</time>
      </trkpt>
      <trkpt lat="45.08599" lon="0.42696">
        <ele>72.72</ele>
        <time>2015-06-15T14:24:06Z</time>
      </trkpt>
      <trkpt lat="45.086" lon="0.427">
        <ele>72.72</ele>
        <time>2015-06-15T14:24:09Z</time>
      </trkpt>
      <trkpt lat="45.08604" lon="0.42709">
        <ele>72.72</ele>
        <time>2015-06-15T14:24:24Z</time>
      </trkpt>
      <trkpt lat="45.08605" lon="0.42708">
        <ele>72.72</ele>
        <time>2015-06-15T14:24:38Z</time>
      </trkpt>
      <trkpt lat="45.08602" lon="0.42704">
        <ele>72.72</ele>
        <time>2015-06-15T14:24:42Z</time>
      </trkpt>
      <trkpt lat="45.0859" lon="0.4267">
        <ele>72.72</ele>
        <time>2015-06-15T14:25:01Z</time>
      </trkpt>
      <trkpt lat="45.0859" lon="0.42668">
        <ele>72.24</ele>
        <time>2015-06-15T14:25:17Z</time>
      </trkpt>
      <trkpt lat="45.08594" lon="0.42659">
        <ele>72.24</ele>
        <time>2015-06-15T14:25:28Z</time>
      </trkpt>
      <trkpt lat="45.08594" lon="0.42659">
        <ele>72.24</ele>
        <time>2015-06-15T14:25:29Z</time>
      </trkpt>
      <trkpt lat="45.08593" lon="0.42666">
        <ele>72.24</ele>
        <time>2015-06-15T14:25:34Z</time>
      </trkpt>
      <trkpt lat="45.08592" lon="0.4268">
        <ele>72.24</ele>
        <time>2015-06-15T14:25:43Z</time>
      </trkpt>
      <trkpt lat="45.08593" lon="0.42682">
        <ele>72.24</ele>
        <time>2015-06-15T14:25:45Z</time>
      </trkpt>
      <trkpt lat="45.086" lon="0.427">
        <ele>72.24</ele>
        <time>2015-06-15T14:25:59Z</time>
      </trkpt>
      <trkpt lat="45.08608" lon="0.42719">
        <ele>72.24</ele>
        <time>2015-06-15T14:26:13Z</time>
      </trkpt>
      <trkpt lat="45.08622" lon="0.42732">
        <ele>72.24</ele>
        <time>2015-06-15T14:26:28Z</time>
      </trkpt>
      <trkpt lat="45.0864" lon="0.42736">
        <ele>72.72</ele>
        <time>2015-06-15T14:26:43Z</time>
      </trkpt>
      <trkpt lat="45.08655" lon="0.42735">
        <ele>72.72</ele>
        <time>2015-06-15T14:26:55Z</time>
      </trkpt>
      <trkpt lat="45.08678" lon="0.4273">
        <ele>72.72</ele>
        <time>2015-06-15T14:27:13Z</time>
      </trkpt>
      <trkpt lat="45.08682" lon="0.42732">
        <ele>72.72</ele>
        <time>2015-06-15T14:27:26Z</time>
      </trkpt>
      <trkpt lat="45.08681" lon="0.42732">
        <ele>72.72</ele>
        <time>2015-06-15T14:27:39Z</time>
      </trkpt>
      <trkpt lat="45.08685" lon="0.42727">
        <ele>73.2</ele>
        <time>2015-06-15T14:27:46Z</time>
      </trkpt>
      <trkpt lat="45.08691" lon="0.42721">
        <ele>73.2</ele>
        <time>2015-06-15T14:27:53Z</time>
      </trkpt>
      <trkpt lat="45.08697" lon="0.4272">
        <ele>73.2</ele>
        <time>2015-06-15T14:28:05Z</time>
      </trkpt>
      <trkpt lat="45.08697" lon="0.4272">
        <ele>73.2</ele>
        <time>2015-06-15T14:28:22Z</time>
      </trkpt>
      <trkpt lat="45.08704" lon="0.42715">
        <ele>73.68</ele>
        <time>2015-06-15T14:28:40Z</time>
      </trkpt>
      <trkpt lat="45.08704" lon="0.42717">
        <ele>73.68</ele>
        <time>2015-06-15T14:29:06Z</time>
      </trkpt>
      <trkpt lat="45.08706" lon="0.42717">
        <ele>74.16</ele>
        <time>2015-06-15T14:29:19Z</time>
      </trkpt>
      <trkpt lat="45.08714" lon="0.42717">
        <ele>74.16</ele>
        <time>2015-06-15T14:29:25Z</time>
      </trkpt>
      <trkpt lat="45.08725" lon="0.4272">
        <ele>73.2</ele>
        <time>2015-06-15T14:29:36Z</time>
      </trkpt>
      <trkpt lat="45.08743" lon="0.42731">
        <ele>72.72</ele>
        <time>2015-06-15T14:29:50Z</time>
      </trkpt>
      <trkpt lat="45.08752" lon="0.42737">
        <ele>72.24</ele>
        <time>2015-06-15T14:29:58Z</time>
      </trkpt>
      <trkpt lat="45.08765" lon="0.42742">
        <ele>71.76</ele>
        <time>2015-06-15T14:30:07Z</time>
      </trkpt>
      <trkpt lat="45.08778" lon="0.42749">
        <ele>70.79</ele>
        <time>2015-06-15T14:30:19Z</time>
      </trkpt>
      <trkpt lat="45.08784" lon="0.42754">
        <ele>70.31</ele>
        <time>2015-06-15T14:30:29Z</time>
      </trkpt>
      <trkpt lat="45.08789" lon="0.42761">
        <ele>69.35</ele>
        <time>2015-06-15T14:30:36Z</time>
      </trkpt>
      <trkpt lat="45.08803" lon="0.4278">
        <ele>65.99</ele>
        <time>2015-06-15T14:30:53Z</time>
      </trkpt>
      <trkpt lat="45.08806" lon="0.42785">
        <ele>65.51</ele>
        <time>2015-06-15T14:30:57Z</time>
      </trkpt>
      <trkpt lat="45.08819" lon="0.42796">
        <ele>64.07</ele>
        <time>2015-06-15T14:31:09Z</time>
      </trkpt>
      <trkpt lat="45.08832" lon="0.42802">
        <ele>63.58</ele>
        <time>2015-06-15T14:31:23Z</time>
      </trkpt>
      <trkpt lat="45.08836" lon="0.42804">
        <ele>63.58</ele>
        <time>2015-06-15T14:31:34Z</time>
      </trkpt>
      <trkpt lat="45.08838" lon="0.42805">
        <ele>63.58</ele>
        <time>2015-06-15T14:32:00Z</time>
      </trkpt>
      <trkpt lat="45.0884" lon="0.42794">
        <ele>63.1</ele>
        <time>2015-06-15T14:32:19Z</time>
      </trkpt>
      <trkpt lat="45.08844" lon="0.42789">
        <ele>63.1</ele>
        <time>2015-06-15T14:32:32Z</time>
      </trkpt>
      <trkpt lat="45.08843" lon="0.42792">
        <ele>63.1</ele>
        <time>2015-06-15T14:32:50Z</time>
      </trkpt>
      <trkpt lat="45.08843" lon="0.42789">
        <ele>63.1</ele>
        <time>2015-06-15T14:33:02Z</time>
      </trkpt>
      <trkpt lat="45.08843" lon="0.42793">
        <ele>63.1</ele>
        <time>2015-06-15T14:33:27Z</time>
      </trkpt>
      <trkpt lat="45.08848" lon="0.42797">
        <ele>63.1</ele>
        <time>2015-06-15T14:34:00Z</time>
      </trkpt>
      <trkpt lat="45.08847" lon="0.42798">
        <ele>63.1</ele>
        <time>2015-06-15T14:34:31Z</time>
      </trkpt>
      <trkpt lat="45.08841" lon="0.428">
        <ele>63.1</ele>
        <time>2015-06-15T14:34:46Z</time>
      </trkpt>
      <trkpt lat="45.0884" lon="0.42803">
        <ele>63.1</ele>
        <time>2015-06-15T14:34:51Z</time>
      </trkpt>
      <trkpt lat="45.08846" lon="0.4281">
        <ele>63.1</ele>
        <time>2015-06-15T14:35:05Z</time>
      </trkpt>
      <trkpt lat="45.08851" lon="0.4281">
        <ele>63.1</ele>
        <time>2015-06-15T14:35:20Z</time>
      </trkpt>
      <trkpt lat="45.08851" lon="0.42814">
        <ele>63.1</ele>
        <time>2015-06-15T14:35:32Z</time>
      </trkpt>
      <trkpt lat="45.08849" lon="0.42813">
        <ele>63.1</ele>
        <time>2015-06-15T14:35:52Z</time>
      </trkpt>
      <trkpt lat="45.08851" lon="0.42817">
        <ele>64.55</ele>
        <time>2015-06-15T14:36:20Z</time>
      </trkpt>
      <trkpt lat="45.08849" lon="0.42819">
        <ele>64.55</ele>
        <time>2015-06-15T14:36:43Z</time>
      </trkpt>
      <trkpt lat="45.08851" lon="0.42822">
        <ele>65.03</ele>
        <time>2015-06-15T14:36:57Z</time>
      </trkpt>
      <trkpt lat="45.08852" lon="0.42826">
        <ele>65.51</ele>
        <time>2015-06-15T14:37:10Z</time>
      </trkpt>
      <trkpt lat="45.0885" lon="0.42827">
        <ele>65.51</ele>
        <time>2015-06-15T14:37:32Z</time>
      </trkpt>
      <trkpt lat="45.08851" lon="0.4283">
        <ele>65.51</ele>
        <time>2015-06-15T14:37:52Z</time>
      </trkpt>
      <trkpt lat="45.0885" lon="0.42831">
        <ele>65.51</ele>
        <time>2015-06-15T14:38:17Z</time>
      </trkpt>
      <trkpt lat="45.08852" lon="0.42832">
        <ele>65.99</ele>
        <time>2015-06-15T14:38:46Z</time>
      </trkpt>
      <trkpt lat="45.08849" lon="0.42829">
        <ele>66.47</ele>
        <time>2015-06-15T14:39:11Z</time>
      </trkpt>
      <trkpt lat="45.08852" lon="0.42827">
        <ele>66.95</ele>
        <time>2015-06-15T14:39:38Z</time>
      </trkpt>
      <trkpt lat="45.0885" lon="0.42831">
        <ele>65.99</ele>
        <time>2015-06-15T14:40:00Z</time>
      </trkpt>
      <trkpt lat="45.08848" lon="0.42826">
        <ele>65.99</ele>
        <time>2015-06-15T14:40:24Z</time>
      </trkpt>
      <trkpt lat="45.08845" lon="0.42828">
        <ele>65.99</ele>
        <time>2015-06-15T14:40:46Z</time>
      </trkpt>
      <trkpt lat="45.08845" lon="0.42826">
        <ele>66.47</ele>
        <time>2015-06-15T14:41:18Z</time>
      </trkpt>
      <trkpt lat="45.08854" lon="0.42834">
        <ele>66.47</ele>
        <time>2015-06-15T14:41:51Z</time>
      </trkpt>
      <trkpt lat="45.08857" lon="0.42827">
        <ele>66.95</ele>
        <time>2015-06-15T14:42:12Z</time>
      </trkpt>
      <trkpt lat="45.08855" lon="0.42828">
        <ele>66.95</ele>
        <time>2015-06-15T14:42:38Z</time>
      </trkpt>
      <trkpt lat="45.08853" lon="0.4283">
        <ele>66.95</ele>
        <time>2015-06-15T14:42:56Z</time>
      </trkpt>
      <trkpt lat="45.08851" lon="0.42828">
        <ele>66.95</ele>
        <time>2015-06-15T14:43:16Z</time>
      </trkpt>
      <trkpt lat="45.08847" lon="0.42832">
        <ele>67.43</ele>
        <time>2015-06-15T14:43:44Z</time>
      </trkpt>
      <trkpt lat="45.08846" lon="0.42832">
        <ele>67.43</ele>
        <time>2015-06-15T14:43:59Z</time>
      </trkpt>
      <trkpt lat="45.0885" lon="0.42828">
        <ele>67.43</ele>
        <time>2015-06-15T14:44:27Z</time>
      </trkpt>
      <trkpt lat="45.08852" lon="0.42826">
        <ele>67.91</ele>
        <time>2015-06-15T14:44:41Z</time>
      </trkpt>
      <trkpt lat="45.08851" lon="0.42827">
        <ele>67.91</ele>
        <time>2015-06-15T14:44:53Z</time>
      </trkpt>
      <trkpt lat="45.0885" lon="0.42828">
        <ele>67.43</ele>
        <time>2015-06-15T14:45:14Z</time>
      </trkpt>
      <trkpt lat="45.08849" lon="0.42829">
        <ele>67.91</ele>
        <time>2015-06-15T14:45:40Z</time>
      </trkpt>
      <trkpt lat="45.08852" lon="0.42826">
        <ele>67.91</ele>
        <time>2015-06-15T14:45:58Z</time>
      </trkpt>
      <trkpt lat="45.08851" lon="0.42826">
        <ele>67.91</ele>
        <time>2015-06-15T14:46:20Z</time>
      </trkpt>
      <trkpt lat="45.08854" lon="0.4282">
        <ele>68.39</ele>
        <time>2015-06-15T14:46:51Z</time>
      </trkpt>
      <trkpt lat="45.08854" lon="0.42823">
        <ele>68.39</ele>
        <time>2015-06-15T14:47:21Z</time>
      </trkpt>
      <trkpt lat="45.08848" lon="0.42824">
        <ele>68.87</ele>
        <time>2015-06-15T14:47:45Z</time>
      </trkpt>
      <trkpt lat="45.08848" lon="0.42824">
        <ele>68.87</ele>
        <time>2015-06-15T14:47:57Z</time>
      </trkpt>
      <trkpt lat="45.08853" lon="0.42816">
        <ele>68.87</ele>
        <time>2015-06-15T14:48:16Z</time>
      </trkpt>
      <trkpt lat="45.08851" lon="0.4282">
        <ele>68.87</ele>
        <time>2015-06-15T14:48:26Z</time>
      </trkpt>
      <trkpt lat="45.08855" lon="0.42818">
        <ele>68.87</ele>
        <time>2015-06-15T14:48:45Z</time>
      </trkpt>
      <trkpt lat="45.08856" lon="0.42821">
        <ele>68.87</ele>
        <time>2015-06-15T14:49:12Z</time>
      </trkpt>
      <trkpt lat="45.08858" lon="0.42821">
        <ele>68.87</ele>
        <time>2015-06-15T14:49:34Z</time>
      </trkpt>
      <trkpt lat="45.08859" lon="0.42821">
        <ele>68.87</ele>
        <time>2015-06-15T14:49:58Z</time>
      </trkpt>
      <trkpt lat="45.08857" lon="0.42823">
        <ele>70.79</ele>
        <time>2015-06-15T14:50:07Z</time>
      </trkpt>
      <trkpt lat="45.08859" lon="0.42822">
        <ele>70.79</ele>
        <time>2015-06-15T14:50:29Z</time>
      </trkpt>
      <trkpt lat="45.08859" lon="0.42822">
        <ele>69.35</ele>
        <time>2015-06-15T14:50:33Z</time>
      </trkpt>
      <trkpt lat="45.08857" lon="0.42823">
        <ele>69.35</ele>
        <time>2015-06-15T14:51:05Z</time>
      </trkpt>
      <trkpt lat="45.08854" lon="0.42822">
        <ele>69.35</ele>
        <time>2015-06-15T14:51:28Z</time>
      </trkpt>
      <trkpt lat="45.08855" lon="0.42824">
        <ele>69.35</ele>
        <time>2015-06-15T14:51:41Z</time>
      </trkpt>
      <trkpt lat="45.08851" lon="0.42823">
        <ele>69.35</ele>
        <time>2015-06-15T14:52:04Z</time>
      </trkpt>
      <trkpt lat="45.08845" lon="0.42818">
        <ele>69.35</ele>
        <time>2015-06-15T14:52:33Z</time>
      </trkpt>
      <trkpt lat="45.08845" lon="0.42823">
        <ele>69.35</ele>
        <time>2015-06-15T14:52:51Z</time>
      </trkpt>
      <trkpt lat="45.08849" lon="0.42828">
        <ele>69.83</ele>
        <time>2015-06-15T14:53:03Z</time>
      </trkpt>
      <trkpt lat="45.08849" lon="0.42828">
        <ele>70.79</ele>
        <time>2015-06-15T14:53:05Z</time>
      </trkpt>
      <trkpt lat="45.08852" lon="0.42826">
        <ele>70.79</ele>
        <time>2015-06-15T14:53:26Z</time>
      </trkpt>
      <trkpt lat="45.08851" lon="0.42828">
        <ele>70.79</ele>
        <time>2015-06-15T14:53:51Z</time>
      </trkpt>
      <trkpt lat="45.0885" lon="0.42815">
        <ele>68.87</ele>
        <time>2015-06-15T14:54:10Z</time>
      </trkpt>
      <trkpt lat="45.08846" lon="0.42811">
        <ele>68.39</ele>
        <time>2015-06-15T14:54:16Z</time>
      </trkpt>
      <trkpt lat="45.08837" lon="0.42806">
        <ele>68.87</ele>
        <time>2015-06-15T14:54:29Z</time>
      </trkpt>
      <trkpt lat="45.08829" lon="0.42803">
        <ele>68.87</ele>
        <time>2015-06-15T14:54:41Z</time>
      </trkpt>
      <trkpt lat="45.0882" lon="0.42798">
        <ele>69.83</ele>
        <time>2015-06-15T14:54:54Z</time>
      </trkpt>
      <trkpt lat="45.0882" lon="0.42799">
        <ele>69.83</ele>
        <time>2015-06-15T14:54:56Z</time>
      </trkpt>
      <trkpt lat="45.08818" lon="0.42799">
        <ele>69.83</ele>
        <time>2015-06-15T14:55:08Z</time>
      </trkpt>
      <trkpt lat="45.08813" lon="0.428">
        <ele>69.83</ele>
        <time>2015-06-15T14:55:31Z</time>
      </trkpt>
      <trkpt lat="45.08813" lon="0.42798">
        <ele>70.31</ele>
        <time>2015-06-15T14:55:48Z</time>
      </trkpt>
      <trkpt lat="45.08813" lon="0.42798">
        <ele>70.31</ele>
        <time>2015-06-15T14:55:50Z</time>
      </trkpt>
      <trkpt lat="45.08812" lon="0.42794">
        <ele>70.31</ele>
        <time>2015-06-15T14:56:01Z</time>
      </trkpt>
      <trkpt lat="45.08802" lon="0.42783">
        <ele>70.79</ele>
        <time>2015-06-15T14:56:13Z</time>
      </trkpt>
      <trkpt lat="45.088" lon="0.4278">
        <ele>71.27</ele>
        <time>2015-06-15T14:56:16Z</time>
      </trkpt>
      <trkpt lat="45.08793" lon="0.4277">
        <ele>73.2</ele>
        <time>2015-06-15T14:56:25Z</time>
      </trkpt>
      <trkpt lat="45.08789" lon="0.42767">
        <ele>73.68</ele>
        <time>2015-06-15T14:56:29Z</time>
      </trkpt>
      <trkpt lat="45.08787" lon="0.42762">
        <ele>74.16</ele>
        <time>2015-06-15T14:56:33Z</time>
      </trkpt>
      <trkpt lat="45.0878" lon="0.42757">
        <ele>75.6</ele>
        <time>2015-06-15T14:56:47Z</time>
      </trkpt>
      <trkpt lat="45.08777" lon="0.4276">
        <ele>75.6</ele>
        <time>2015-06-15T14:56:56Z</time>
      </trkpt>
      <trkpt lat="45.08773" lon="0.42767">
        <ele>75.6</ele>
        <time>2015-06-15T14:57:08Z</time>
      </trkpt>
      <trkpt lat="45.08769" lon="0.42781">
        <ele>74.16</ele>
        <time>2015-06-15T14:57:16Z</time>
      </trkpt>
      <trkpt lat="45.08769" lon="0.42783">
        <ele>74.16</ele>
        <time>2015-06-15T14:57:17Z</time>
      </trkpt>
      <trkpt lat="45.0876" lon="0.42806">
        <ele>74.16</ele>
        <time>2015-06-15T14:57:30Z</time>
      </trkpt>
      <trkpt lat="45.08759" lon="0.42811">
        <ele>73.68</ele>
        <time>2015-06-15T14:57:33Z</time>
      </trkpt>
      <trkpt lat="45.08747" lon="0.42838">
        <ele>72.24</ele>
        <time>2015-06-15T14:57:49Z</time>
      </trkpt>
      <trkpt lat="45.08744" lon="0.42848">
        <ele>72.24</ele>
        <time>2015-06-15T14:57:55Z</time>
      </trkpt>
      <trkpt lat="45.08741" lon="0.42854">
        <ele>71.76</ele>
        <time>2015-06-15T14:57:59Z</time>
      </trkpt>
      <trkpt lat="45.08734" lon="0.42873">
        <ele>70.79</ele>
        <time>2015-06-15T14:58:12Z</time>
      </trkpt>
      <trkpt lat="45.08729" lon="0.42893">
        <ele>70.31</ele>
        <time>2015-06-15T14:58:24Z</time>
      </trkpt>
      <trkpt lat="45.08727" lon="0.42911">
        <ele>69.35</ele>
        <time>2015-06-15T14:58:37Z</time>
      </trkpt>
      <trkpt lat="45.08726" lon="0.42917">
        <ele>69.35</ele>
        <time>2015-06-15T14:58:40Z</time>
      </trkpt>
      <trkpt lat="45.08726" lon="0.42928">
        <ele>68.87</ele>
        <time>2015-06-15T14:58:46Z</time>
      </trkpt>
      <trkpt lat="45.08727" lon="0.42943">
        <ele>67.91</ele>
        <time>2015-06-15T14:58:55Z</time>
      </trkpt>
      <trkpt lat="45.08728" lon="0.42971">
        <ele>67.43</ele>
        <time>2015-06-15T14:59:11Z</time>
      </trkpt>
      <trkpt lat="45.08729" lon="0.42979">
        <ele>67.43</ele>
        <time>2015-06-15T14:59:15Z</time>
      </trkpt>
      <trkpt lat="45.08729" lon="0.42993">
        <ele>66.95</ele>
        <time>2015-06-15T14:59:22Z</time>
      </trkpt>
      <trkpt lat="45.08732" lon="0.43013">
        <ele>65.99</ele>
        <time>2015-06-15T14:59:34Z</time>
      </trkpt>
      <trkpt lat="45.08732" lon="0.4302">
        <ele>65.99</ele>
        <time>2015-06-15T14:59:38Z</time>
      </trkpt>
      <trkpt lat="45.08732" lon="0.43027">
        <ele>65.51</ele>
        <time>2015-06-15T14:59:43Z</time>
      </trkpt>
      <trkpt lat="45.08737" lon="0.43036">
        <ele>64.55</ele>
        <time>2015-06-15T14:59:49Z</time>
      </trkpt>
      <trkpt lat="45.08747" lon="0.43067">
        <ele>64.07</ele>
        <time>2015-06-15T15:00:08Z</time>
      </trkpt>
      <trkpt lat="45.08751" lon="0.43082">
        <ele>63.58</ele>
        <time>2015-06-15T15:00:23Z</time>
      </trkpt>
      <trkpt lat="45.08757" lon="0.43083">
        <ele>63.58</ele>
        <time>2015-06-15T15:00:40Z</time>
      </trkpt>
      <trkpt lat="45.0876" lon="0.43088">
        <ele>63.58</ele>
        <time>2015-06-15T15:00:55Z</time>
      </trkpt>
      <trkpt lat="45.08758" lon="0.43082">
        <ele>63.58</ele>
        <time>2015-06-15T15:01:08Z</time>
      </trkpt>
      <trkpt lat="45.08756" lon="0.43078">
        <ele>63.1</ele>
        <time>2015-06-15T15:01:24Z</time>
      </trkpt>
      <trkpt lat="45.08755" lon="0.43078">
        <ele>62.62</ele>
        <time>2015-06-15T15:01:41Z</time>
      </trkpt>
      <trkpt lat="45.08756" lon="0.43079">
        <ele>62.62</ele>
        <time>2015-06-15T15:02:03Z</time>
      </trkpt>
      <trkpt lat="45.08757" lon="0.43079">
        <ele>62.62</ele>
        <time>2015-06-15T15:02:21Z</time>
      </trkpt>
      <trkpt lat="45.08755" lon="0.43079">
        <ele>62.14</ele>
        <time>2015-06-15T15:02:40Z</time>
      </trkpt>
      <trkpt lat="45.08756" lon="0.43076">
        <ele>61.18</ele>
        <time>2015-06-15T15:03:08Z</time>
      </trkpt>
      <trkpt lat="45.08761" lon="0.43079">
        <ele>60.7</ele>
        <time>2015-06-15T15:03:25Z</time>
      </trkpt>
      <trkpt lat="45.0876" lon="0.43083">
        <ele>60.7</ele>
        <time>2015-06-15T15:03:41Z</time>
      </trkpt>
      <trkpt lat="45.08754" lon="0.43087">
        <ele>61.66</ele>
        <time>2015-06-15T15:04:02Z</time>
      </trkpt>
      <trkpt lat="45.08754" lon="0.4309">
        <ele>62.14</ele>
        <time>2015-06-15T15:04:20Z</time>
      </trkpt>
      <trkpt lat="45.08754" lon="0.43082">
        <ele>62.62</ele>
        <time>2015-06-15T15:04:42Z</time>
      </trkpt>
      <trkpt lat="45.08757" lon="0.43083">
        <ele>62.62</ele>
        <time>2015-06-15T15:05:02Z</time>
      </trkpt>
      <trkpt lat="45.08758" lon="0.43088">
        <ele>62.62</ele>
        <time>2015-06-15T15:05:20Z</time>
      </trkpt>
      <trkpt lat="45.0876" lon="0.43087">
        <ele>61.66</ele>
        <time>2015-06-15T15:05:26Z</time>
      </trkpt>
      <trkpt lat="45.08761" lon="0.43085">
        <ele>61.66</ele>
        <time>2015-06-15T15:05:41Z</time>
      </trkpt>
      <trkpt lat="45.08758" lon="0.43086">
        <ele>61.66</ele>
        <time>2015-06-15T15:05:58Z</time>
      </trkpt>
      <trkpt lat="45.08757" lon="0.43086">
        <ele>61.66</ele>
        <time>2015-06-15T15:06:17Z</time>
      </trkpt>
      <trkpt lat="45.08756" lon="0.43086">
        <ele>61.18</ele>
        <time>2015-06-15T15:06:33Z</time>
      </trkpt>
      <trkpt lat="45.08755" lon="0.43087">
        <ele>61.18</ele>
        <time>2015-06-15T15:06:44Z</time>
      </trkpt>
      <trkpt lat="45.08756" lon="0.43085">
        <ele>61.18</ele>
        <time>2015-06-15T15:07:05Z</time>
      </trkpt>
      <trkpt lat="45.08754" lon="0.43087">
        <ele>61.18</ele>
        <time>2015-06-15T15:07:19Z</time>
      </trkpt>
      <trkpt lat="45.08754" lon="0.43086">
        <ele>62.62</ele>
        <time>2015-06-15T15:07:22Z</time>
      </trkpt>
      <trkpt lat="45.08756" lon="0.43083">
        <ele>62.62</ele>
        <time>2015-06-15T15:07:44Z</time>
      </trkpt>
      <trkpt lat="45.08757" lon="0.43088">
        <ele>62.62</ele>
        <time>2015-06-15T15:07:50Z</time>
      </trkpt>
      <trkpt lat="45.0876" lon="0.43089">
        <ele>62.62</ele>
        <time>2015-06-15T15:08:06Z</time>
      </trkpt>
      <trkpt lat="45.08759" lon="0.43098">
        <ele>62.14</ele>
        <time>2015-06-15T15:08:30Z</time>
      </trkpt>
      <trkpt lat="45.0876" lon="0.43101">
        <ele>62.14</ele>
        <time>2015-06-15T15:08:33Z</time>
      </trkpt>
      <trkpt lat="45.08761" lon="0.43107">
        <ele>62.14</ele>
        <time>2015-06-15T15:08:36Z</time>
      </trkpt>
      <trkpt lat="45.08765" lon="0.43106">
        <ele>62.14</ele>
        <time>2015-06-15T15:08:49Z</time>
      </trkpt>
      <trkpt lat="45.08764" lon="0.43101">
        <ele>62.14</ele>
        <time>2015-06-15T15:09:02Z</time>
      </trkpt>
      <trkpt lat="45.08764" lon="0.43101">
        <ele>62.14</ele>
        <time>2015-06-15T15:09:18Z</time>
      </trkpt>
      <trkpt lat="45.08765" lon="0.43106">
        <ele>62.62</ele>
        <time>2015-06-15T15:09:37Z</time>
      </trkpt>
      <trkpt lat="45.08768" lon="0.43116">
        <ele>62.62</ele>
        <time>2015-06-15T15:09:52Z</time>
      </trkpt>
      <trkpt lat="45.08772" lon="0.43136">
        <ele>62.62</ele>
        <time>2015-06-15T15:10:07Z</time>
      </trkpt>
      <trkpt lat="45.08776" lon="0.43144">
        <ele>62.62</ele>
        <time>2015-06-15T15:10:13Z</time>
      </trkpt>
      <trkpt lat="45.08782" lon="0.43163">
        <ele>63.1</ele>
        <time>2015-06-15T15:10:25Z</time>
      </trkpt>
      <trkpt lat="45.08795" lon="0.43175">
        <ele>63.1</ele>
        <time>2015-06-15T15:10:39Z</time>
      </trkpt>
      <trkpt lat="45.08796" lon="0.43176">
        <ele>63.1</ele>
        <time>2015-06-15T15:10:40Z</time>
      </trkpt>
      <trkpt lat="45.08807" lon="0.43181">
        <ele>63.1</ele>
        <time>2015-06-15T15:10:50Z</time>
      </trkpt>
      <trkpt lat="45.08821" lon="0.43181">
        <ele>64.55</ele>
        <time>2015-06-15T15:11:03Z</time>
      </trkpt>
      <trkpt lat="45.08825" lon="0.43182">
        <ele>64.55</ele>
        <time>2015-06-15T15:11:10Z</time>
      </trkpt>
      <trkpt lat="45.08825" lon="0.43188">
        <ele>64.55</ele>
        <time>2015-06-15T15:11:14Z</time>
      </trkpt>
      <trkpt lat="45.08825" lon="0.43194">
        <ele>64.55</ele>
        <time>2015-06-15T15:11:29Z</time>
      </trkpt>
      <trkpt lat="45.08829" lon="0.43182">
        <ele>65.03</ele>
        <time>2015-06-15T15:11:42Z</time>
      </trkpt>
      <trkpt lat="45.08838" lon="0.43177">
        <ele>65.03</ele>
        <time>2015-06-15T15:11:57Z</time>
      </trkpt>
      <trkpt lat="45.08847" lon="0.43172">
        <ele>65.99</ele>
        <time>2015-06-15T15:12:09Z</time>
      </trkpt>
      <trkpt lat="45.08858" lon="0.43161">
        <ele>65.99</ele>
        <time>2015-06-15T15:12:23Z</time>
      </trkpt>
      <trkpt lat="45.08862" lon="0.43158">
        <ele>66.47</ele>
        <time>2015-06-15T15:12:28Z</time>
      </trkpt>
      <trkpt lat="45.08865" lon="0.43157">
        <ele>66.47</ele>
        <time>2015-06-15T15:12:30Z</time>
      </trkpt>
      <trkpt lat="45.08875" lon="0.43149">
        <ele>67.91</ele>
        <time>2015-06-15T15:12:40Z</time>
      </trkpt>
      <trkpt lat="45.08891" lon="0.43136">
        <ele>68.87</ele>
        <time>2015-06-15T15:12:55Z</time>
      </trkpt>
      <trkpt lat="45.08901" lon="0.43128">
        <ele>69.35</ele>
        <time>2015-06-15T15:13:05Z</time>
      </trkpt>
      <trkpt lat="45.08905" lon="0.43128">
        <ele>70.31</ele>
        <time>2015-06-15T15:13:08Z</time>
      </trkpt>
      <trkpt lat="45.08907" lon="0.43132">
        <ele>70.79</ele>
        <time>2015-06-15T15:13:25Z</time>
      </trkpt>
      <trkpt lat="45.08904" lon="0.43131">
        <ele>71.27</ele>
        <time>2015-06-15T15:13:46Z</time>
      </trkpt>
      <trkpt lat="45.08903" lon="0.43131">
        <ele>71.27</ele>
        <time>2015-06-15T15:14:12Z</time>
      </trkpt>
      <trkpt lat="45.08906" lon="0.43128">
        <ele>71.27</ele>
        <time>2015-06-15T15:14:38Z</time>
      </trkpt>
      <trkpt lat="45.08903" lon="0.43129">
        <ele>71.27</ele>
        <time>2015-06-15T15:15:01Z</time>
      </trkpt>
      <trkpt lat="45.08905" lon="0.43132">
        <ele>70.79</ele>
        <time>2015-06-15T15:15:37Z</time>
      </trkpt>
      <trkpt lat="45.08905" lon="0.43142">
        <ele>70.79</ele>
        <time>2015-06-15T15:15:48Z</time>
      </trkpt>
      <trkpt lat="45.08903" lon="0.43154">
        <ele>70.79</ele>
        <time>2015-06-15T15:16:00Z</time>
      </trkpt>
      <trkpt lat="45.089" lon="0.43158">
        <ele>71.27</ele>
        <time>2015-06-15T15:16:15Z</time>
      </trkpt>
      <trkpt lat="45.08898" lon="0.43161">
        <ele>71.27</ele>
        <time>2015-06-15T15:16:36Z</time>
      </trkpt>
      <trkpt lat="45.08903" lon="0.43165">
        <ele>70.79</ele>
        <time>2015-06-15T15:16:56Z</time>
      </trkpt>
      <trkpt lat="45.08904" lon="0.43161">
        <ele>70.79</ele>
        <time>2015-06-15T15:17:26Z</time>
      </trkpt>
      <trkpt lat="45.08904" lon="0.43151">
        <ele>70.79</ele>
        <time>2015-06-15T15:17:35Z</time>
      </trkpt>
      <trkpt lat="45.08906" lon="0.43148">
        <ele>70.79</ele>
        <time>2015-06-15T15:17:38Z</time>
      </trkpt>
      <trkpt lat="45.0891" lon="0.43128">
        <ele>70.79</ele>
        <time>2015-06-15T15:17:53Z</time>
      </trkpt>
      <trkpt lat="45.08919" lon="0.4311">
        <ele>70.79</ele>
        <time>2015-06-15T15:18:09Z</time>
      </trkpt>
      <trkpt lat="45.08927" lon="0.43092">
        <ele>71.76</ele>
        <time>2015-06-15T15:18:24Z</time>
      </trkpt>
      <trkpt lat="45.08935" lon="0.43075">
        <ele>72.72</ele>
        <time>2015-06-15T15:18:39Z</time>
      </trkpt>
      <trkpt lat="45.08936" lon="0.43072">
        <ele>72.72</ele>
        <time>2015-06-15T15:18:41Z</time>
      </trkpt>
      <trkpt lat="45.08936" lon="0.43069">
        <ele>73.2</ele>
        <time>2015-06-15T15:18:43Z</time>
      </trkpt>
      <trkpt lat="45.08929" lon="0.43066">
        <ele>74.64</ele>
        <time>2015-06-15T15:18:58Z</time>
      </trkpt>
      <trkpt lat="45.0893" lon="0.43069">
        <ele>74.64</ele>
        <time>2015-06-15T15:19:11Z</time>
      </trkpt>
      <trkpt lat="45.08929" lon="0.43071">
        <ele>73.2</ele>
        <time>2015-06-15T15:19:26Z</time>
      </trkpt>
      <trkpt lat="45.08926" lon="0.43072">
        <ele>73.2</ele>
        <time>2015-06-15T15:19:39Z</time>
      </trkpt>
      <trkpt lat="45.08927" lon="0.4307">
        <ele>73.2</ele>
        <time>2015-06-15T15:20:06Z</time>
      </trkpt>
      <trkpt lat="45.08928" lon="0.43069">
        <ele>73.2</ele>
        <time>2015-06-15T15:20:13Z</time>
      </trkpt>
      <trkpt lat="45.08928" lon="0.43067">
        <ele>74.64</ele>
        <time>2015-06-15T15:20:26Z</time>
      </trkpt>
      <trkpt lat="45.0893" lon="0.43066">
        <ele>74.16</ele>
        <time>2015-06-15T15:20:53Z</time>
      </trkpt>
      <trkpt lat="45.0893" lon="0.43065">
        <ele>75.12</ele>
        <time>2015-06-15T15:21:15Z</time>
      </trkpt>
      <trkpt lat="45.08935" lon="0.43066">
        <ele>75.12</ele>
        <time>2015-06-15T15:21:36Z</time>
      </trkpt>
      <trkpt lat="45.08938" lon="0.43067">
        <ele>73.68</ele>
        <time>2015-06-15T15:21:39Z</time>
      </trkpt>
      <trkpt lat="45.08939" lon="0.43067">
        <ele>73.68</ele>
        <time>2015-06-15T15:21:40Z</time>
      </trkpt>
      <trkpt lat="45.08941" lon="0.43068">
        <ele>73.68</ele>
        <time>2015-06-15T15:21:43Z</time>
      </trkpt>
      <trkpt lat="45.08944" lon="0.43063">
        <ele>73.68</ele>
        <time>2015-06-15T15:21:50Z</time>
      </trkpt>
      <trkpt lat="45.08954" lon="0.4305">
        <ele>75.6</ele>
        <time>2015-06-15T15:22:00Z</time>
      </trkpt>
      <trkpt lat="45.08955" lon="0.43045">
        <ele>75.6</ele>
        <time>2015-06-15T15:22:04Z</time>
      </trkpt>
      <trkpt lat="45.08958" lon="0.43038">
        <ele>75.6</ele>
        <time>2015-06-15T15:22:09Z</time>
      </trkpt>
      <trkpt lat="45.08963" lon="0.43023">
        <ele>77.52</ele>
        <time>2015-06-15T15:22:20Z</time>
      </trkpt>
      <trkpt lat="45.08966" lon="0.43018">
        <ele>76.56</ele>
        <time>2015-06-15T15:22:25Z</time>
      </trkpt>
      <trkpt lat="45.08967" lon="0.43015">
        <ele>76.56</ele>
        <time>2015-06-15T15:22:27Z</time>
      </trkpt>
      <trkpt lat="45.08973" lon="0.43003">
        <ele>77.52</ele>
        <time>2015-06-15T15:22:38Z</time>
      </trkpt>
      <trkpt lat="45.08978" lon="0.42989">
        <ele>77.52</ele>
        <time>2015-06-15T15:22:49Z</time>
      </trkpt>
      <trkpt lat="45.08984" lon="0.42975">
        <ele>77.52</ele>
        <time>2015-06-15T15:22:59Z</time>
      </trkpt>
      <trkpt lat="45.08986" lon="0.42965">
        <ele>77.52</ele>
        <time>2015-06-15T15:23:06Z</time>
      </trkpt>
      <trkpt lat="45.08989" lon="0.4296">
        <ele>78</ele>
        <time>2015-06-15T15:23:11Z</time>
      </trkpt>
      <trkpt lat="45.0899" lon="0.42957">
        <ele>78</ele>
        <time>2015-06-15T15:23:13Z</time>
      </trkpt>
      <trkpt lat="45.08991" lon="0.42953">
        <ele>78</ele>
        <time>2015-06-15T15:23:16Z</time>
      </trkpt>
      <trkpt lat="45.08992" lon="0.4295">
        <ele>78</ele>
        <time>2015-06-15T15:23:18Z</time>
      </trkpt>
      <trkpt lat="45.08993" lon="0.42945">
        <ele>78</ele>
        <time>2015-06-15T15:23:21Z</time>
      </trkpt>
      <trkpt lat="45.09001" lon="0.42924">
        <ele>78.48</ele>
        <time>2015-06-15T15:23:35Z</time>
      </trkpt>
      <trkpt lat="45.09002" lon="0.42921">
        <ele>78.48</ele>
        <time>2015-06-15T15:23:37Z</time>
      </trkpt>
      <trkpt lat="45.09012" lon="0.42906">
        <ele>78.97</ele>
        <time>2015-06-15T15:23:52Z</time>
      </trkpt>
      <trkpt lat="45.09014" lon="0.42901">
        <ele>79.45</ele>
        <time>2015-06-15T15:23:57Z</time>
      </trkpt>
      <trkpt lat="45.09004" lon="0.42884">
        <ele>79.45</ele>
        <time>2015-06-15T15:24:10Z</time>
      </trkpt>
      <trkpt lat="45.08999" lon="0.42874">
        <ele>79.45</ele>
        <time>2015-06-15T15:24:18Z</time>
      </trkpt>
      <trkpt lat="45.08995" lon="0.42864">
        <ele>79.45</ele>
        <time>2015-06-15T15:24:25Z</time>
      </trkpt>
      <trkpt lat="45.08986" lon="0.42844">
        <ele>79.45</ele>
        <time>2015-06-15T15:24:39Z</time>
      </trkpt>
      <trkpt lat="45.08981" lon="0.4283">
        <ele>79.45</ele>
        <time>2015-06-15T15:24:51Z</time>
      </trkpt>
      <trkpt lat="45.0898" lon="0.42828">
        <ele>79.45</ele>
        <time>2015-06-15T15:24:53Z</time>
      </trkpt>
      <trkpt lat="45.08977" lon="0.42819">
        <ele>79.45</ele>
        <time>2015-06-15T15:24:59Z</time>
      </trkpt>
      <trkpt lat="45.08972" lon="0.42808">
        <ele>79.45</ele>
        <time>2015-06-15T15:25:11Z</time>
      </trkpt>
      <trkpt lat="45.08964" lon="0.42792">
        <ele>79.45</ele>
        <time>2015-06-15T15:25:23Z</time>
      </trkpt>
      <trkpt lat="45.08963" lon="0.42786">
        <ele>79.45</ele>
        <time>2015-06-15T15:25:27Z</time>
      </trkpt>
      <trkpt lat="45.0896" lon="0.42778">
        <ele>79.45</ele>
        <time>2015-06-15T15:25:34Z</time>
      </trkpt>
      <trkpt lat="45.08957" lon="0.42769">
        <ele>79.45</ele>
        <time>2015-06-15T15:25:39Z</time>
      </trkpt>
      <trkpt lat="45.08954" lon="0.42762">
        <ele>79.45</ele>
        <time>2015-06-15T15:25:43Z</time>
      </trkpt>
      <trkpt lat="45.08953" lon="0.42759">
        <ele>79.45</ele>
        <time>2015-06-15T15:25:45Z</time>
      </trkpt>
      <trkpt lat="45.08951" lon="0.42755">
        <ele>79.45</ele>
        <time>2015-06-15T15:25:48Z</time>
      </trkpt>
      <trkpt lat="45.0895" lon="0.42748">
        <ele>78</ele>
        <time>2015-06-15T15:25:53Z</time>
      </trkpt>
      <trkpt lat="45.08943" lon="0.42722">
        <ele>77.04</ele>
        <time>2015-06-15T15:26:11Z</time>
      </trkpt>
      <trkpt lat="45.08935" lon="0.42695">
        <ele>76.56</ele>
        <time>2015-06-15T15:26:27Z</time>
      </trkpt>
      <trkpt lat="45.08925" lon="0.42665">
        <ele>75.6</ele>
        <time>2015-06-15T15:26:44Z</time>
      </trkpt>
      <trkpt lat="45.08915" lon="0.42639">
        <ele>75.12</ele>
        <time>2015-06-15T15:27:01Z</time>
      </trkpt>
      <trkpt lat="45.08906" lon="0.42621">
        <ele>74.64</ele>
        <time>2015-06-15T15:27:14Z</time>
      </trkpt>
      <trkpt lat="45.08893" lon="0.42601">
        <ele>74.16</ele>
        <time>2015-06-15T15:27:29Z</time>
      </trkpt>
      <trkpt lat="45.08889" lon="0.42597">
        <ele>73.68</ele>
        <time>2015-06-15T15:27:33Z</time>
      </trkpt>
      <trkpt lat="45.08878" lon="0.42594">
        <ele>72.24</ele>
        <time>2015-06-15T15:27:48Z</time>
      </trkpt>
      <trkpt lat="45.08876" lon="0.42592">
        <ele>71.76</ele>
        <time>2015-06-15T15:28:00Z</time>
      </trkpt>
      <trkpt lat="45.08876" lon="0.4259">
        <ele>71.76</ele>
        <time>2015-06-15T15:28:17Z</time>
      </trkpt>
      <trkpt lat="45.08876" lon="0.42589">
        <ele>71.76</ele>
        <time>2015-06-15T15:28:28Z</time>
      </trkpt>
      <trkpt lat="45.08876" lon="0.42591">
        <ele>71.76</ele>
        <time>2015-06-15T15:28:53Z</time>
      </trkpt>
      <trkpt lat="45.08876" lon="0.42591">
        <ele>71.76</ele>
        <time>2015-06-15T15:29:21Z</time>
      </trkpt>
      <trkpt lat="45.08876" lon="0.42591">
        <ele>71.27</ele>
        <time>2015-06-15T15:29:38Z</time>
      </trkpt>
      <trkpt lat="45.08883" lon="0.4259">
        <ele>73.68</ele>
        <time>2015-06-15T15:29:50Z</time>
      </trkpt>
      <trkpt lat="45.08882" lon="0.42586">
        <ele>73.68</ele>
        <time>2015-06-15T15:30:03Z</time>
      </trkpt>
      <trkpt lat="45.08878" lon="0.42581">
        <ele>74.64</ele>
        <time>2015-06-15T15:30:28Z</time>
      </trkpt>
      <trkpt lat="45.0887" lon="0.42574">
        <ele>73.2</ele>
        <time>2015-06-15T15:30:38Z</time>
      </trkpt>
      <trkpt lat="45.08861" lon="0.42565">
        <ele>74.16</ele>
        <time>2015-06-15T15:30:48Z</time>
      </trkpt>
      <trkpt lat="45.08854" lon="0.42559">
        <ele>74.16</ele>
        <time>2015-06-15T15:30:59Z</time>
      </trkpt>
      <trkpt lat="45.0885" lon="0.42555">
        <ele>74.64</ele>
        <time>2015-06-15T15:31:11Z</time>
      </trkpt>
      <trkpt lat="45.08845" lon="0.42552">
        <ele>75.12</ele>
        <time>2015-06-15T15:31:16Z</time>
      </trkpt>
      <trkpt lat="45.08835" lon="0.42544">
        <ele>76.08</ele>
        <time>2015-06-15T15:31:29Z</time>
      </trkpt>
      <trkpt lat="45.08823" lon="0.42538">
        <ele>76.56</ele>
        <time>2015-06-15T15:31:45Z</time>
      </trkpt>
      <trkpt lat="45.08823" lon="0.42538">
        <ele>76.56</ele>
        <time>2015-06-15T15:31:46Z</time>
      </trkpt>
      <trkpt lat="45.0882" lon="0.42537">
        <ele>76.56</ele>
        <time>2015-06-15T15:31:51Z</time>
      </trkpt>
      <trkpt lat="45.08813" lon="0.42533">
        <ele>76.56</ele>
        <time>2015-06-15T15:31:58Z</time>
      </trkpt>
      <trkpt lat="45.08802" lon="0.42529">
        <ele>77.52</ele>
        <time>2015-06-15T15:32:10Z</time>
      </trkpt>
      <trkpt lat="45.08799" lon="0.42528">
        <ele>77.52</ele>
        <time>2015-06-15T15:32:13Z</time>
      </trkpt>
      <trkpt lat="45.0879" lon="0.42524">
        <ele>78.48</ele>
        <time>2015-06-15T15:32:22Z</time>
      </trkpt>
      <trkpt lat="45.08788" lon="0.42523">
        <ele>78.48</ele>
        <time>2015-06-15T15:32:24Z</time>
      </trkpt>
      <trkpt lat="45.08785" lon="0.42522">
        <ele>78.48</ele>
        <time>2015-06-15T15:32:27Z</time>
      </trkpt>
      <trkpt lat="45.08771" lon="0.42514">
        <ele>79.45</ele>
        <time>2015-06-15T15:32:41Z</time>
      </trkpt>
      <trkpt lat="45.08769" lon="0.42512">
        <ele>79.45</ele>
        <time>2015-06-15T15:32:43Z</time>
      </trkpt>
      <trkpt lat="45.08755" lon="0.42506">
        <ele>79.93</ele>
        <time>2015-06-15T15:32:55Z</time>
      </trkpt>
      <trkpt lat="45.08746" lon="0.42498">
        <ele>79.93</ele>
        <time>2015-06-15T15:33:04Z</time>
      </trkpt>
      <trkpt lat="45.08739" lon="0.42494">
        <ele>79.93</ele>
        <time>2015-06-15T15:33:16Z</time>
      </trkpt>
      <trkpt lat="45.08732" lon="0.42484">
        <ele>79.93</ele>
        <time>2015-06-15T15:33:26Z</time>
      </trkpt>
      <trkpt lat="45.08722" lon="0.42476">
        <ele>79.93</ele>
        <time>2015-06-15T15:33:36Z</time>
      </trkpt>
      <trkpt lat="45.08716" lon="0.42464">
        <ele>79.93</ele>
        <time>2015-06-15T15:33:45Z</time>
      </trkpt>
      <trkpt lat="45.08713" lon="0.4246">
        <ele>79.93</ele>
        <time>2015-06-15T15:33:50Z</time>
      </trkpt>
      <trkpt lat="45.08708" lon="0.42449">
        <ele>79.93</ele>
        <time>2015-06-15T15:33:58Z</time>
      </trkpt>
      <trkpt lat="45.08707" lon="0.42445">
        <ele>79.93</ele>
        <time>2015-06-15T15:34:01Z</time>
      </trkpt>
      <trkpt lat="45.08711" lon="0.42417">
        <ele>79.93</ele>
        <time>2015-06-15T15:34:19Z</time>
      </trkpt>
      <trkpt lat="45.08715" lon="0.4241">
        <ele>79.93</ele>
        <time>2015-06-15T15:34:27Z</time>
      </trkpt>
      <trkpt lat="45.08727" lon="0.42393">
        <ele>79.93</ele>
        <time>2015-06-15T15:34:43Z</time>
      </trkpt>
      <trkpt lat="45.08738" lon="0.42376">
        <ele>79.93</ele>
        <time>2015-06-15T15:34:58Z</time>
      </trkpt>
      <trkpt lat="45.08742" lon="0.42368">
        <ele>79.93</ele>
        <time>2015-06-15T15:35:04Z</time>
      </trkpt>
      <trkpt lat="45.08749" lon="0.42355">
        <ele>79.93</ele>
        <time>2015-06-15T15:35:14Z</time>
      </trkpt>
      <trkpt lat="45.08756" lon="0.42344">
        <ele>79.93</ele>
        <time>2015-06-15T15:35:28Z</time>
      </trkpt>
      <trkpt lat="45.08758" lon="0.42341">
        <ele>79.93</ele>
        <time>2015-06-15T15:35:55Z</time>
      </trkpt>
      <trkpt lat="45.08756" lon="0.42341">
        <ele>79.93</ele>
        <time>2015-06-15T15:36:14Z</time>
      </trkpt>
      <trkpt lat="45.08767" lon="0.42323">
        <ele>79.93</ele>
        <time>2015-06-15T15:36:29Z</time>
      </trkpt>
      <trkpt lat="45.08777" lon="0.42308">
        <ele>79.93</ele>
        <time>2015-06-15T15:36:42Z</time>
      </trkpt>
      <trkpt lat="45.08779" lon="0.42305">
        <ele>79.93</ele>
        <time>2015-06-15T15:36:44Z</time>
      </trkpt>
      <trkpt lat="45.08785" lon="0.42292">
        <ele>80.41</ele>
        <time>2015-06-15T15:36:55Z</time>
      </trkpt>
      <trkpt lat="45.08787" lon="0.42288">
        <ele>80.41</ele>
        <time>2015-06-15T15:36:58Z</time>
      </trkpt>
      <trkpt lat="45.08792" lon="0.42278">
        <ele>80.41</ele>
        <time>2015-06-15T15:37:08Z</time>
      </trkpt>
      <trkpt lat="45.08796" lon="0.42276">
        <ele>80.41</ele>
        <time>2015-06-15T15:37:21Z</time>
      </trkpt>
      <trkpt lat="45.08795" lon="0.42278">
        <ele>80.41</ele>
        <time>2015-06-15T15:37:35Z</time>
      </trkpt>
      <trkpt lat="45.08796" lon="0.42279">
        <ele>80.89</ele>
        <time>2015-06-15T15:38:01Z</time>
      </trkpt>
      <trkpt lat="45.08796" lon="0.42278">
        <ele>82.33</ele>
        <time>2015-06-15T15:38:06Z</time>
      </trkpt>
      <trkpt lat="45.08796" lon="0.42278">
        <ele>80.89</ele>
        <time>2015-06-15T15:38:08Z</time>
      </trkpt>
      <trkpt lat="45.08796" lon="0.42278">
        <ele>80.89</ele>
        <time>2015-06-15T15:38:29Z</time>
      </trkpt>
      <trkpt lat="45.08795" lon="0.42276">
        <ele>80.89</ele>
        <time>2015-06-15T15:38:54Z</time>
      </trkpt>
      <trkpt lat="45.08796" lon="0.42278">
        <ele>80.89</ele>
        <time>2015-06-15T15:39:22Z</time>
      </trkpt>
      <trkpt lat="45.08796" lon="0.42276">
        <ele>80.41</ele>
        <time>2015-06-15T15:39:44Z</time>
      </trkpt>
      <trkpt lat="45.08795" lon="0.42276">
        <ele>80.41</ele>
        <time>2015-06-15T15:40:07Z</time>
      </trkpt>
      <trkpt lat="45.08795" lon="0.42276">
        <ele>80.41</ele>
        <time>2015-06-15T15:40:29Z</time>
      </trkpt>
      <trkpt lat="45.08793" lon="0.42277">
        <ele>80.41</ele>
        <time>2015-06-15T15:40:38Z</time>
      </trkpt>
      <trkpt lat="45.08791" lon="0.42281">
        <ele>80.41</ele>
        <time>2015-06-15T15:40:41Z</time>
      </trkpt>
      <trkpt lat="45.08788" lon="0.42288">
        <ele>80.41</ele>
        <time>2015-06-15T15:40:46Z</time>
      </trkpt>
      <trkpt lat="45.08777" lon="0.42305">
        <ele>79.93</ele>
        <time>2015-06-15T15:41:00Z</time>
      </trkpt>
      <trkpt lat="45.08764" lon="0.42308">
        <ele>79.93</ele>
        <time>2015-06-15T15:41:12Z</time>
      </trkpt>
      <trkpt lat="45.08751" lon="0.42298">
        <ele>79.93</ele>
        <time>2015-06-15T15:41:26Z</time>
      </trkpt>
      <trkpt lat="45.08738" lon="0.42285">
        <ele>79.93</ele>
        <time>2015-06-15T15:41:40Z</time>
      </trkpt>
      <trkpt lat="45.08726" lon="0.42272">
        <ele>79.93</ele>
        <time>2015-06-15T15:41:52Z</time>
      </trkpt>
      <trkpt lat="45.08717" lon="0.42256">
        <ele>79.93</ele>
        <time>2015-06-15T15:42:04Z</time>
      </trkpt>
      <trkpt lat="45.08716" lon="0.42255">
        <ele>79.93</ele>
        <time>2015-06-15T15:42:05Z</time>
      </trkpt>
      <trkpt lat="45.08706" lon="0.42238">
        <ele>79.93</ele>
        <time>2015-06-15T15:42:18Z</time>
      </trkpt>
      <trkpt lat="45.08697" lon="0.42224">
        <ele>79.45</ele>
        <time>2015-06-15T15:42:30Z</time>
      </trkpt>
      <trkpt lat="45.08687" lon="0.42207">
        <ele>79.45</ele>
        <time>2015-06-15T15:42:42Z</time>
      </trkpt>
      <trkpt lat="45.0868" lon="0.42199">
        <ele>79.45</ele>
        <time>2015-06-15T15:42:49Z</time>
      </trkpt>
      <trkpt lat="45.0867" lon="0.42179">
        <ele>79.45</ele>
        <time>2015-06-15T15:43:04Z</time>
      </trkpt>
      <trkpt lat="45.08668" lon="0.42176">
        <ele>79.45</ele>
        <time>2015-06-15T15:43:06Z</time>
      </trkpt>
      <trkpt lat="45.08658" lon="0.42159">
        <ele>79.45</ele>
        <time>2015-06-15T15:43:20Z</time>
      </trkpt>
      <trkpt lat="45.0865" lon="0.42139">
        <ele>80.89</ele>
        <time>2015-06-15T15:43:33Z</time>
      </trkpt>
      <trkpt lat="45.08646" lon="0.42132">
        <ele>80.89</ele>
        <time>2015-06-15T15:43:39Z</time>
      </trkpt>
      <trkpt lat="45.08639" lon="0.42121">
        <ele>80.89</ele>
        <time>2015-06-15T15:43:50Z</time>
      </trkpt>
      <trkpt lat="45.08625" lon="0.42099">
        <ele>81.37</ele>
        <time>2015-06-15T15:44:07Z</time>
      </trkpt>
      <trkpt lat="45.08621" lon="0.42087">
        <ele>81.37</ele>
        <time>2015-06-15T15:44:15Z</time>
      </trkpt>
      <trkpt lat="45.08609" lon="0.42055">
        <ele>81.85</ele>
        <time>2015-06-15T15:44:37Z</time>
      </trkpt>
      <trkpt lat="45.08608" lon="0.42044">
        <ele>82.33</ele>
        <time>2015-06-15T15:44:51Z</time>
      </trkpt>
      <trkpt lat="45.08606" lon="0.42044">
        <ele>82.33</ele>
        <time>2015-06-15T15:45:07Z</time>
      </trkpt>
      <trkpt lat="45.08608" lon="0.42044">
        <ele>82.33</ele>
        <time>2015-06-15T15:45:21Z</time>
      </trkpt>
      <trkpt lat="45.08609" lon="0.42045">
        <ele>82.33</ele>
        <time>2015-06-15T15:45:35Z</time>
      </trkpt>
      <trkpt lat="45.08609" lon="0.42046">
        <ele>82.33</ele>
        <time>2015-06-15T15:45:56Z</time>
      </trkpt>
      <trkpt lat="45.08609" lon="0.42045">
        <ele>82.33</ele>
        <time>2015-06-15T15:46:11Z</time>
      </trkpt>
      <trkpt lat="45.08608" lon="0.42046">
        <ele>82.33</ele>
        <time>2015-06-15T15:46:31Z</time>
      </trkpt>
      <trkpt lat="45.08608" lon="0.42045">
        <ele>82.33</ele>
        <time>2015-06-15T15:46:46Z</time>
      </trkpt>
      <trkpt lat="45.08612" lon="0.42045">
        <ele>82.33</ele>
        <time>2015-06-15T15:47:14Z</time>
      </trkpt>
      <trkpt lat="45.08612" lon="0.42046">
        <ele>82.33</ele>
        <time>2015-06-15T15:47:31Z</time>
      </trkpt>
      <trkpt lat="45.08609" lon="0.42048">
        <ele>82.33</ele>
        <time>2015-06-15T15:48:08Z</time>
      </trkpt>
      <trkpt lat="45.08609" lon="0.42047">
        <ele>80.89</ele>
        <time>2015-06-15T15:48:15Z</time>
      </trkpt>
      <trkpt lat="45.08608" lon="0.42046">
        <ele>82.33</ele>
        <time>2015-06-15T15:48:29Z</time>
      </trkpt>
      <trkpt lat="45.08609" lon="0.42043">
        <ele>82.33</ele>
        <time>2015-06-15T15:49:00Z</time>
      </trkpt>
      <trkpt lat="45.08608" lon="0.42043">
        <ele>82.33</ele>
        <time>2015-06-15T15:49:26Z</time>
      </trkpt>
      <trkpt lat="45.08608" lon="0.42045">
        <ele>82.33</ele>
        <time>2015-06-15T15:50:00Z</time>
      </trkpt>
      <trkpt lat="45.08609" lon="0.42044">
        <ele>82.33</ele>
        <time>2015-06-15T15:50:39Z</time>
      </trkpt>
      <trkpt lat="45.08607" lon="0.4204">
        <ele>82.33</ele>
        <time>2015-06-15T15:50:45Z</time>
      </trkpt>
      <trkpt lat="45.08601" lon="0.42037">
        <ele>82.33</ele>
        <time>2015-06-15T15:50:50Z</time>
      </trkpt>
      <trkpt lat="45.08599" lon="0.42034">
        <ele>82.33</ele>
        <time>2015-06-15T15:50:53Z</time>
      </trkpt>
      <trkpt lat="45.08597" lon="0.42026">
        <ele>82.33</ele>
        <time>2015-06-15T15:50:58Z</time>
      </trkpt>
      <trkpt lat="45.08595" lon="0.42021">
        <ele>82.33</ele>
        <time>2015-06-15T15:51:01Z</time>
      </trkpt>
      <trkpt lat="45.08592" lon="0.42008">
        <ele>82.81</ele>
        <time>2015-06-15T15:51:08Z</time>
      </trkpt>
      <trkpt lat="45.08591" lon="0.41996">
        <ele>83.29</ele>
        <time>2015-06-15T15:51:15Z</time>
      </trkpt>
      <trkpt lat="45.0859" lon="0.41992">
        <ele>83.29</ele>
        <time>2015-06-15T15:51:18Z</time>
      </trkpt>
      <trkpt lat="45.08585" lon="0.41967">
        <ele>83.77</ele>
        <time>2015-06-15T15:51:33Z</time>
      </trkpt>
      <trkpt lat="45.08583" lon="0.41962">
        <ele>83.77</ele>
        <time>2015-06-15T15:51:36Z</time>
      </trkpt>
      <trkpt lat="45.08576" lon="0.41944">
        <ele>84.73</ele>
        <time>2015-06-15T15:51:48Z</time>
      </trkpt>
      <trkpt lat="45.08572" lon="0.41918">
        <ele>85.21</ele>
        <time>2015-06-15T15:52:03Z</time>
      </trkpt>
      <trkpt lat="45.08566" lon="0.41887">
        <ele>85.21</ele>
        <time>2015-06-15T15:52:20Z</time>
      </trkpt>
      <trkpt lat="45.08561" lon="0.41868">
        <ele>85.21</ele>
        <time>2015-06-15T15:52:34Z</time>
      </trkpt>
      <trkpt lat="45.08559" lon="0.41836">
        <ele>85.69</ele>
        <time>2015-06-15T15:52:52Z</time>
      </trkpt>
      <trkpt lat="45.08559" lon="0.41818">
        <ele>85.69</ele>
        <time>2015-06-15T15:53:02Z</time>
      </trkpt>
      <trkpt lat="45.08559" lon="0.41802">
        <ele>85.69</ele>
        <time>2015-06-15T15:53:15Z</time>
      </trkpt>
      <trkpt lat="45.08558" lon="0.41776">
        <ele>85.69</ele>
        <time>2015-06-15T15:53:30Z</time>
      </trkpt>
      <trkpt lat="45.08559" lon="0.41747">
        <ele>85.69</ele>
        <time>2015-06-15T15:53:47Z</time>
      </trkpt>
      <trkpt lat="45.08559" lon="0.41717">
        <ele>86.18</ele>
        <time>2015-06-15T15:54:02Z</time>
      </trkpt>
      <trkpt lat="45.08559" lon="0.41702">
        <ele>86.18</ele>
        <time>2015-06-15T15:54:11Z</time>
      </trkpt>
      <trkpt lat="45.08558" lon="0.41698">
        <ele>86.18</ele>
        <time>2015-06-15T15:54:14Z</time>
      </trkpt>
      <trkpt lat="45.08556" lon="0.41681">
        <ele>86.66</ele>
        <time>2015-06-15T15:54:29Z</time>
      </trkpt>
      <trkpt lat="45.08556" lon="0.4168">
        <ele>86.66</ele>
        <time>2015-06-15T15:54:30Z</time>
      </trkpt>
      <trkpt lat="45.08555" lon="0.41676">
        <ele>86.66</ele>
        <time>2015-06-15T15:54:33Z</time>
      </trkpt>
      <trkpt lat="45.08554" lon="0.41673">
        <ele>87.14</ele>
        <time>2015-06-15T15:54:35Z</time>
      </trkpt>
      <trkpt lat="45.08551" lon="0.41664">
        <ele>87.62</ele>
        <time>2015-06-15T15:54:41Z</time>
      </trkpt>
      <trkpt lat="45.08545" lon="0.41649">
        <ele>87.62</ele>
        <time>2015-06-15T15:54:52Z</time>
      </trkpt>
      <trkpt lat="45.08538" lon="0.41629">
        <ele>89.06</ele>
        <time>2015-06-15T15:55:06Z</time>
      </trkpt>
      <trkpt lat="45.08531" lon="0.41609">
        <ele>89.54</ele>
        <time>2015-06-15T15:55:19Z</time>
      </trkpt>
      <trkpt lat="45.08524" lon="0.41593">
        <ele>90.5</ele>
        <time>2015-06-15T15:55:33Z</time>
      </trkpt>
      <trkpt lat="45.08526" lon="0.41588">
        <ele>90.5</ele>
        <time>2015-06-15T15:55:37Z</time>
      </trkpt>
      <trkpt lat="45.08525" lon="0.41585">
        <ele>90.5</ele>
        <time>2015-06-15T15:55:39Z</time>
      </trkpt>
      <trkpt lat="45.08517" lon="0.41566">
        <ele>91.46</ele>
        <time>2015-06-15T15:55:54Z</time>
      </trkpt>
      <trkpt lat="45.08519" lon="0.41564">
        <ele>92.42</ele>
        <time>2015-06-15T15:56:04Z</time>
      </trkpt>
      <trkpt lat="45.08516" lon="0.41554">
        <ele>92.9</ele>
        <time>2015-06-15T15:56:18Z</time>
      </trkpt>
      <trkpt lat="45.08518" lon="0.41556">
        <ele>92.9</ele>
        <time>2015-06-15T15:56:43Z</time>
      </trkpt>
      <trkpt lat="45.08516" lon="0.41555">
        <ele>93.39</ele>
        <time>2015-06-15T15:57:03Z</time>
      </trkpt>
      <trkpt lat="45.08514" lon="0.41552">
        <ele>93.39</ele>
        <time>2015-06-15T15:57:06Z</time>
      </trkpt>
      <trkpt lat="45.08511" lon="0.41543">
        <ele>94.35</ele>
        <time>2015-06-15T15:57:12Z</time>
      </trkpt>
      <trkpt lat="45.08515" lon="0.41539">
        <ele>94.83</ele>
        <time>2015-06-15T15:57:17Z</time>
      </trkpt>
      <trkpt lat="45.08521" lon="0.41527">
        <ele>95.31</ele>
        <time>2015-06-15T15:57:33Z</time>
      </trkpt>
      <trkpt lat="45.08519" lon="0.41528">
        <ele>94.35</ele>
        <time>2015-06-15T15:57:50Z</time>
      </trkpt>
      <trkpt lat="45.08519" lon="0.41527">
        <ele>94.35</ele>
        <time>2015-06-15T15:58:03Z</time>
      </trkpt>
      <trkpt lat="45.08515" lon="0.41529">
        <ele>95.31</ele>
        <time>2015-06-15T15:58:22Z</time>
      </trkpt>
      <trkpt lat="45.08521" lon="0.4153">
        <ele>95.31</ele>
        <time>2015-06-15T15:58:54Z</time>
      </trkpt>
      <trkpt lat="45.08519" lon="0.4153">
        <ele>95.79</ele>
        <time>2015-06-15T15:59:15Z</time>
      </trkpt>
      <trkpt lat="45.08518" lon="0.41536">
        <ele>95.79</ele>
        <time>2015-06-15T15:59:27Z</time>
      </trkpt>
      <trkpt lat="45.08512" lon="0.41532">
        <ele>96.27</ele>
        <time>2015-06-15T15:59:39Z</time>
      </trkpt>
      <trkpt lat="45.08502" lon="0.41515">
        <ele>96.27</ele>
        <time>2015-06-15T15:59:54Z</time>
      </trkpt>
      <trkpt lat="45.08498" lon="0.41511">
        <ele>95.79</ele>
        <time>2015-06-15T15:59:59Z</time>
      </trkpt>
      <trkpt lat="45.08491" lon="0.41505">
        <ele>96.27</ele>
        <time>2015-06-15T16:00:08Z</time>
      </trkpt>
      <trkpt lat="45.08489" lon="0.41504">
        <ele>94.83</ele>
        <time>2015-06-15T16:00:10Z</time>
      </trkpt>
      <trkpt lat="45.08481" lon="0.41497">
        <ele>94.83</ele>
        <time>2015-06-15T16:00:19Z</time>
      </trkpt>
      <trkpt lat="45.08478" lon="0.41492">
        <ele>94.83</ele>
        <time>2015-06-15T16:00:23Z</time>
      </trkpt>
      <trkpt lat="45.08474" lon="0.41489">
        <ele>96.75</ele>
        <time>2015-06-15T16:00:27Z</time>
      </trkpt>
      <trkpt lat="45.0847" lon="0.41489">
        <ele>96.75</ele>
        <time>2015-06-15T16:00:31Z</time>
      </trkpt>
      <trkpt lat="45.08461" lon="0.41491">
        <ele>95.31</ele>
        <time>2015-06-15T16:00:42Z</time>
      </trkpt>
      <trkpt lat="45.0846" lon="0.41487">
        <ele>95.31</ele>
        <time>2015-06-15T16:00:47Z</time>
      </trkpt>
      <trkpt lat="45.08449" lon="0.41475">
        <ele>96.75</ele>
        <time>2015-06-15T16:01:01Z</time>
      </trkpt>
      <trkpt lat="45.08442" lon="0.4147">
        <ele>96.75</ele>
        <time>2015-06-15T16:01:14Z</time>
      </trkpt>
      <trkpt lat="45.08445" lon="0.41468">
        <ele>96.75</ele>
        <time>2015-06-15T16:01:30Z</time>
      </trkpt>
      <trkpt lat="45.08445" lon="0.41465">
        <ele>95.31</ele>
        <time>2015-06-15T16:01:38Z</time>
      </trkpt>
      <trkpt lat="45.08443" lon="0.41467">
        <ele>98.67</ele>
        <time>2015-06-15T16:01:40Z</time>
      </trkpt>
      <trkpt lat="45.08441" lon="0.41468">
        <ele>96.27</ele>
        <time>2015-06-15T16:01:41Z</time>
      </trkpt>
      <trkpt lat="45.08439" lon="0.41465">
        <ele>95.79</ele>
        <time>2015-06-15T16:01:52Z</time>
      </trkpt>
      <trkpt lat="45.0844" lon="0.41464">
        <ele>95.31</ele>
        <time>2015-06-15T16:02:03Z</time>
      </trkpt>
      <trkpt lat="45.08445" lon="0.41466">
        <ele>95.31</ele>
        <time>2015-06-15T16:02:17Z</time>
      </trkpt>
      <trkpt lat="45.08448" lon="0.41467">
        <ele>96.75</ele>
        <time>2015-06-15T16:02:26Z</time>
      </trkpt>
      <trkpt lat="45.08448" lon="0.41467">
        <ele>95.31</ele>
        <time>2015-06-15T16:02:29Z</time>
      </trkpt>
    </trkseg>
  </trk>
</gpx>